<?xml version="1.0" encoding="UTF-8" standalone="no" ?>
<gpx xmlns="http://www.topografix.com/GPX/1/1" xmlns:xsi="http://www.w3.org/2001/XMLSchema-instance" xsi:schemaLocation="http://www.topografix.com/GPX/1/1 http://www.topografix.com/GPX/1/1/gpx.xsd" version="1.1" creator="VisuGPX - https://www.visugpx.com">
  <metadata>
    <name>83 - V - Flayosc </name>
    <desc><![CDATA[grp_trc:]]></desc>
  </metadata>
  <trk>
    <name><![CDATA[12 janv. 2024]]></name>
    <cmt><![CDATA[13:52:54]]></cmt>
    <desc><![CDATA[comment ...]]></desc>
    <trkseg>
      <trkpt lat="43.53474" lon="6.39864">
        <ele>307</ele>
        <time>2024-01-12T12:52:54Z</time>
      </trkpt>
      <trkpt lat="43.53474" lon="6.39864">
        <ele>307</ele>
        <time>2024-01-12T12:52:55Z</time>
      </trkpt>
      <trkpt lat="43.53474" lon="6.3987">
        <ele>306</ele>
        <time>2024-01-12T12:53:08Z</time>
      </trkpt>
      <trkpt lat="43.53472" lon="6.39872">
        <ele>297</ele>
        <time>2024-01-12T12:53:40Z</time>
      </trkpt>
      <trkpt lat="43.53472" lon="6.39876">
        <ele>296</ele>
        <time>2024-01-12T12:54:31Z</time>
      </trkpt>
      <trkpt lat="43.53471" lon="6.39878">
        <ele>293</ele>
        <time>2024-01-12T12:54:37Z</time>
      </trkpt>
      <trkpt lat="43.53468" lon="6.39879">
        <ele>289</ele>
        <time>2024-01-12T12:56:57Z</time>
      </trkpt>
      <trkpt lat="43.53466" lon="6.39885">
        <ele>289</ele>
        <time>2024-01-12T12:57:05Z</time>
      </trkpt>
      <trkpt lat="43.53464" lon="6.39889">
        <ele>288</ele>
        <time>2024-01-12T12:57:10Z</time>
      </trkpt>
      <trkpt lat="43.53461" lon="6.39895">
        <ele>289</ele>
        <time>2024-01-12T12:57:17Z</time>
      </trkpt>
      <trkpt lat="43.5346" lon="6.39898">
        <ele>290</ele>
        <time>2024-01-12T12:57:20Z</time>
      </trkpt>
      <trkpt lat="43.53458" lon="6.39908">
        <ele>289</ele>
        <time>2024-01-12T12:57:29Z</time>
      </trkpt>
      <trkpt lat="43.53454" lon="6.39925">
        <ele>289</ele>
        <time>2024-01-12T12:57:46Z</time>
      </trkpt>
      <trkpt lat="43.5345" lon="6.39931">
        <ele>289</ele>
        <time>2024-01-12T12:57:53Z</time>
      </trkpt>
      <trkpt lat="43.53448" lon="6.39934">
        <ele>289</ele>
        <time>2024-01-12T12:57:57Z</time>
      </trkpt>
      <trkpt lat="43.53448" lon="6.39938">
        <ele>289</ele>
        <time>2024-01-12T12:58:02Z</time>
      </trkpt>
      <trkpt lat="43.53445" lon="6.3994">
        <ele>288</ele>
        <time>2024-01-12T12:58:05Z</time>
      </trkpt>
      <trkpt lat="43.53442" lon="6.39938">
        <ele>288</ele>
        <time>2024-01-12T12:58:10Z</time>
      </trkpt>
      <trkpt lat="43.53438" lon="6.39937">
        <ele>286</ele>
        <time>2024-01-12T12:58:16Z</time>
      </trkpt>
      <trkpt lat="43.53434" lon="6.39936">
        <ele>285</ele>
        <time>2024-01-12T12:58:22Z</time>
      </trkpt>
      <trkpt lat="43.53427" lon="6.39934">
        <ele>283</ele>
        <time>2024-01-12T12:58:31Z</time>
      </trkpt>
      <trkpt lat="43.53424" lon="6.39935">
        <ele>284</ele>
        <time>2024-01-12T12:58:34Z</time>
      </trkpt>
      <trkpt lat="43.53409" lon="6.39934">
        <ele>288</ele>
        <time>2024-01-12T12:58:48Z</time>
      </trkpt>
      <trkpt lat="43.53405" lon="6.39933">
        <ele>288</ele>
        <time>2024-01-12T12:58:52Z</time>
      </trkpt>
      <trkpt lat="43.53402" lon="6.39933">
        <ele>288</ele>
        <time>2024-01-12T12:58:56Z</time>
      </trkpt>
      <trkpt lat="43.53382" lon="6.39932">
        <ele>292</ele>
        <time>2024-01-12T12:59:20Z</time>
      </trkpt>
      <trkpt lat="43.53378" lon="6.39933">
        <ele>293</ele>
        <time>2024-01-12T12:59:29Z</time>
      </trkpt>
      <trkpt lat="43.53374" lon="6.39935">
        <ele>293</ele>
        <time>2024-01-12T12:59:35Z</time>
      </trkpt>
      <trkpt lat="43.53349" lon="6.39933">
        <ele>296</ele>
        <time>2024-01-12T13:00:04Z</time>
      </trkpt>
      <trkpt lat="43.53342" lon="6.39931">
        <ele>296</ele>
        <time>2024-01-12T13:00:10Z</time>
      </trkpt>
      <trkpt lat="43.53337" lon="6.39929">
        <ele>296</ele>
        <time>2024-01-12T13:00:16Z</time>
      </trkpt>
      <trkpt lat="43.53332" lon="6.39928">
        <ele>296</ele>
        <time>2024-01-12T13:00:22Z</time>
      </trkpt>
      <trkpt lat="43.53327" lon="6.39927">
        <ele>297</ele>
        <time>2024-01-12T13:00:28Z</time>
      </trkpt>
      <trkpt lat="43.53317" lon="6.39912">
        <ele>299</ele>
        <time>2024-01-12T13:00:44Z</time>
      </trkpt>
      <trkpt lat="43.53313" lon="6.39906">
        <ele>297</ele>
        <time>2024-01-12T13:00:48Z</time>
      </trkpt>
      <trkpt lat="43.53311" lon="6.39901">
        <ele>294</ele>
        <time>2024-01-12T13:00:51Z</time>
      </trkpt>
      <trkpt lat="43.53309" lon="6.39896">
        <ele>293</ele>
        <time>2024-01-12T13:00:54Z</time>
      </trkpt>
      <trkpt lat="43.53311" lon="6.39877">
        <ele>288</ele>
        <time>2024-01-12T13:01:06Z</time>
      </trkpt>
      <trkpt lat="43.53312" lon="6.39872">
        <ele>287</ele>
        <time>2024-01-12T13:01:11Z</time>
      </trkpt>
      <trkpt lat="43.5331" lon="6.39867">
        <ele>287</ele>
        <time>2024-01-12T13:01:18Z</time>
      </trkpt>
      <trkpt lat="43.5331" lon="6.39862">
        <ele>286</ele>
        <time>2024-01-12T13:01:23Z</time>
      </trkpt>
      <trkpt lat="43.53309" lon="6.39856">
        <ele>285</ele>
        <time>2024-01-12T13:01:28Z</time>
      </trkpt>
      <trkpt lat="43.53311" lon="6.39851">
        <ele>285</ele>
        <time>2024-01-12T13:01:34Z</time>
      </trkpt>
      <trkpt lat="43.5331" lon="6.39838">
        <ele>285</ele>
        <time>2024-01-12T13:01:42Z</time>
      </trkpt>
      <trkpt lat="43.53307" lon="6.3981">
        <ele>284</ele>
        <time>2024-01-12T13:02:01Z</time>
      </trkpt>
      <trkpt lat="43.53306" lon="6.39791">
        <ele>282</ele>
        <time>2024-01-12T13:02:13Z</time>
      </trkpt>
      <trkpt lat="43.53308" lon="6.39786">
        <ele>283</ele>
        <time>2024-01-12T13:02:17Z</time>
      </trkpt>
      <trkpt lat="43.53307" lon="6.39779">
        <ele>284</ele>
        <time>2024-01-12T13:02:22Z</time>
      </trkpt>
      <trkpt lat="43.53307" lon="6.39765">
        <ele>288</ele>
        <time>2024-01-12T13:02:30Z</time>
      </trkpt>
      <trkpt lat="43.53308" lon="6.39761">
        <ele>290</ele>
        <time>2024-01-12T13:02:34Z</time>
      </trkpt>
      <trkpt lat="43.5331" lon="6.39757">
        <ele>291</ele>
        <time>2024-01-12T13:02:45Z</time>
      </trkpt>
      <trkpt lat="43.5331" lon="6.39747">
        <ele>294</ele>
        <time>2024-01-12T13:03:00Z</time>
      </trkpt>
      <trkpt lat="43.53313" lon="6.39738">
        <ele>295</ele>
        <time>2024-01-12T13:03:07Z</time>
      </trkpt>
      <trkpt lat="43.53314" lon="6.39733">
        <ele>295</ele>
        <time>2024-01-12T13:03:13Z</time>
      </trkpt>
      <trkpt lat="43.53307" lon="6.3973">
        <ele>296</ele>
        <time>2024-01-12T13:03:40Z</time>
      </trkpt>
      <trkpt lat="43.53301" lon="6.39729">
        <ele>296</ele>
        <time>2024-01-12T13:03:47Z</time>
      </trkpt>
      <trkpt lat="43.53294" lon="6.39723">
        <ele>295</ele>
        <time>2024-01-12T13:03:59Z</time>
      </trkpt>
      <trkpt lat="43.53287" lon="6.39717">
        <ele>293</ele>
        <time>2024-01-12T13:04:07Z</time>
      </trkpt>
      <trkpt lat="43.5328" lon="6.39712">
        <ele>294</ele>
        <time>2024-01-12T13:04:14Z</time>
      </trkpt>
      <trkpt lat="43.53277" lon="6.39709">
        <ele>293</ele>
        <time>2024-01-12T13:04:17Z</time>
      </trkpt>
      <trkpt lat="43.53273" lon="6.39709">
        <ele>293</ele>
        <time>2024-01-12T13:04:21Z</time>
      </trkpt>
      <trkpt lat="43.53258" lon="6.39714">
        <ele>296</ele>
        <time>2024-01-12T13:04:33Z</time>
      </trkpt>
      <trkpt lat="43.5325" lon="6.39719">
        <ele>296</ele>
        <time>2024-01-12T13:04:40Z</time>
      </trkpt>
      <trkpt lat="43.53243" lon="6.3973">
        <ele>295</ele>
        <time>2024-01-12T13:04:49Z</time>
      </trkpt>
      <trkpt lat="43.5324" lon="6.39735">
        <ele>294</ele>
        <time>2024-01-12T13:04:54Z</time>
      </trkpt>
      <trkpt lat="43.5323" lon="6.39753">
        <ele>291</ele>
        <time>2024-01-12T13:05:08Z</time>
      </trkpt>
      <trkpt lat="43.53227" lon="6.3976">
        <ele>290</ele>
        <time>2024-01-12T13:05:14Z</time>
      </trkpt>
      <trkpt lat="43.53226" lon="6.39765">
        <ele>290</ele>
        <time>2024-01-12T13:05:17Z</time>
      </trkpt>
      <trkpt lat="43.53226" lon="6.39773">
        <ele>291</ele>
        <time>2024-01-12T13:05:24Z</time>
      </trkpt>
      <trkpt lat="43.53226" lon="6.39776">
        <ele>291</ele>
        <time>2024-01-12T13:05:28Z</time>
      </trkpt>
      <trkpt lat="43.53225" lon="6.39785">
        <ele>290</ele>
        <time>2024-01-12T13:05:34Z</time>
      </trkpt>
      <trkpt lat="43.53223" lon="6.39795">
        <ele>290</ele>
        <time>2024-01-12T13:05:40Z</time>
      </trkpt>
      <trkpt lat="43.5322" lon="6.39813">
        <ele>290</ele>
        <time>2024-01-12T13:05:53Z</time>
      </trkpt>
      <trkpt lat="43.53218" lon="6.39816">
        <ele>290</ele>
        <time>2024-01-12T13:05:59Z</time>
      </trkpt>
      <trkpt lat="43.53195" lon="6.39816">
        <ele>290</ele>
        <time>2024-01-12T13:06:31Z</time>
      </trkpt>
      <trkpt lat="43.53187" lon="6.39816">
        <ele>291</ele>
        <time>2024-01-12T13:06:40Z</time>
      </trkpt>
      <trkpt lat="43.53181" lon="6.39814">
        <ele>290</ele>
        <time>2024-01-12T13:06:48Z</time>
      </trkpt>
      <trkpt lat="43.53168" lon="6.39814">
        <ele>289</ele>
        <time>2024-01-12T13:07:01Z</time>
      </trkpt>
      <trkpt lat="43.53158" lon="6.39817">
        <ele>290</ele>
        <time>2024-01-12T13:07:12Z</time>
      </trkpt>
      <trkpt lat="43.53147" lon="6.39818">
        <ele>291</ele>
        <time>2024-01-12T13:07:24Z</time>
      </trkpt>
      <trkpt lat="43.53143" lon="6.39819">
        <ele>291</ele>
        <time>2024-01-12T13:07:27Z</time>
      </trkpt>
      <trkpt lat="43.53134" lon="6.39819">
        <ele>293</ele>
        <time>2024-01-12T13:07:36Z</time>
      </trkpt>
      <trkpt lat="43.5313" lon="6.3982">
        <ele>293</ele>
        <time>2024-01-12T13:07:41Z</time>
      </trkpt>
      <trkpt lat="43.53123" lon="6.3982">
        <ele>291</ele>
        <time>2024-01-12T13:07:47Z</time>
      </trkpt>
      <trkpt lat="43.53116" lon="6.39819">
        <ele>291</ele>
        <time>2024-01-12T13:07:54Z</time>
      </trkpt>
      <trkpt lat="43.53113" lon="6.39817">
        <ele>291</ele>
        <time>2024-01-12T13:07:58Z</time>
      </trkpt>
      <trkpt lat="43.5311" lon="6.39815">
        <ele>291</ele>
        <time>2024-01-12T13:08:02Z</time>
      </trkpt>
      <trkpt lat="43.53108" lon="6.39811">
        <ele>292</ele>
        <time>2024-01-12T13:08:06Z</time>
      </trkpt>
      <trkpt lat="43.53105" lon="6.39808">
        <ele>292</ele>
        <time>2024-01-12T13:08:10Z</time>
      </trkpt>
      <trkpt lat="43.53103" lon="6.39807">
        <ele>292</ele>
        <time>2024-01-12T13:08:14Z</time>
      </trkpt>
      <trkpt lat="43.53099" lon="6.39805">
        <ele>293</ele>
        <time>2024-01-12T13:08:19Z</time>
      </trkpt>
      <trkpt lat="43.53075" lon="6.39791">
        <ele>297</ele>
        <time>2024-01-12T13:08:49Z</time>
      </trkpt>
      <trkpt lat="43.53069" lon="6.39786">
        <ele>297</ele>
        <time>2024-01-12T13:08:57Z</time>
      </trkpt>
      <trkpt lat="43.53066" lon="6.39785">
        <ele>298</ele>
        <time>2024-01-12T13:09:02Z</time>
      </trkpt>
      <trkpt lat="43.53063" lon="6.39783">
        <ele>299</ele>
        <time>2024-01-12T13:09:05Z</time>
      </trkpt>
      <trkpt lat="43.53061" lon="6.39781">
        <ele>299</ele>
        <time>2024-01-12T13:09:08Z</time>
      </trkpt>
      <trkpt lat="43.53057" lon="6.39779">
        <ele>301</ele>
        <time>2024-01-12T13:09:13Z</time>
      </trkpt>
      <trkpt lat="43.53054" lon="6.39779">
        <ele>301</ele>
        <time>2024-01-12T13:09:18Z</time>
      </trkpt>
      <trkpt lat="43.53047" lon="6.39774">
        <ele>303</ele>
        <time>2024-01-12T13:09:29Z</time>
      </trkpt>
      <trkpt lat="43.53044" lon="6.39772">
        <ele>303</ele>
        <time>2024-01-12T13:09:34Z</time>
      </trkpt>
      <trkpt lat="43.53027" lon="6.39761">
        <ele>307</ele>
        <time>2024-01-12T13:09:59Z</time>
      </trkpt>
      <trkpt lat="43.5302" lon="6.39757">
        <ele>308</ele>
        <time>2024-01-12T13:10:12Z</time>
      </trkpt>
      <trkpt lat="43.53016" lon="6.39758">
        <ele>309</ele>
        <time>2024-01-12T13:10:18Z</time>
      </trkpt>
      <trkpt lat="43.53013" lon="6.39757">
        <ele>309</ele>
        <time>2024-01-12T13:10:24Z</time>
      </trkpt>
      <trkpt lat="43.53002" lon="6.39751">
        <ele>310</ele>
        <time>2024-01-12T13:10:42Z</time>
      </trkpt>
      <trkpt lat="43.52999" lon="6.39752">
        <ele>310</ele>
        <time>2024-01-12T13:10:50Z</time>
      </trkpt>
      <trkpt lat="43.52992" lon="6.39756">
        <ele>311</ele>
        <time>2024-01-12T13:11:01Z</time>
      </trkpt>
      <trkpt lat="43.52986" lon="6.39758">
        <ele>313</ele>
        <time>2024-01-12T13:11:11Z</time>
      </trkpt>
      <trkpt lat="43.52973" lon="6.39763">
        <ele>314</ele>
        <time>2024-01-12T13:11:31Z</time>
      </trkpt>
      <trkpt lat="43.52947" lon="6.39776">
        <ele>314</ele>
        <time>2024-01-12T13:12:01Z</time>
      </trkpt>
      <trkpt lat="43.52914" lon="6.39774">
        <ele>316</ele>
        <time>2024-01-12T13:12:34Z</time>
      </trkpt>
      <trkpt lat="43.52906" lon="6.39776">
        <ele>318</ele>
        <time>2024-01-12T13:12:49Z</time>
      </trkpt>
      <trkpt lat="43.52902" lon="6.39778">
        <ele>318</ele>
        <time>2024-01-12T13:12:54Z</time>
      </trkpt>
      <trkpt lat="43.52899" lon="6.39779">
        <ele>319</ele>
        <time>2024-01-12T13:12:59Z</time>
      </trkpt>
      <trkpt lat="43.52891" lon="6.39784">
        <ele>320</ele>
        <time>2024-01-12T13:13:10Z</time>
      </trkpt>
      <trkpt lat="43.52888" lon="6.39785">
        <ele>320</ele>
        <time>2024-01-12T13:13:14Z</time>
      </trkpt>
      <trkpt lat="43.52885" lon="6.39784">
        <ele>319</ele>
        <time>2024-01-12T13:13:24Z</time>
      </trkpt>
      <trkpt lat="43.52883" lon="6.39785">
        <ele>318</ele>
        <time>2024-01-12T13:13:35Z</time>
      </trkpt>
      <trkpt lat="43.52879" lon="6.39785">
        <ele>319</ele>
        <time>2024-01-12T13:13:40Z</time>
      </trkpt>
      <trkpt lat="43.52875" lon="6.39784">
        <ele>321</ele>
        <time>2024-01-12T13:15:07Z</time>
      </trkpt>
      <trkpt lat="43.52872" lon="6.39783">
        <ele>324</ele>
        <time>2024-01-12T13:15:11Z</time>
      </trkpt>
      <trkpt lat="43.52868" lon="6.39784">
        <ele>325</ele>
        <time>2024-01-12T13:15:16Z</time>
      </trkpt>
      <trkpt lat="43.52861" lon="6.39791">
        <ele>327</ele>
        <time>2024-01-12T13:15:46Z</time>
      </trkpt>
      <trkpt lat="43.52846" lon="6.39802">
        <ele>327</ele>
        <time>2024-01-12T13:16:08Z</time>
      </trkpt>
      <trkpt lat="43.52844" lon="6.39805">
        <ele>327</ele>
        <time>2024-01-12T13:16:11Z</time>
      </trkpt>
      <trkpt lat="43.52827" lon="6.39821">
        <ele>323</ele>
        <time>2024-01-12T13:16:34Z</time>
      </trkpt>
      <trkpt lat="43.52825" lon="6.39824">
        <ele>322</ele>
        <time>2024-01-12T13:16:37Z</time>
      </trkpt>
      <trkpt lat="43.52806" lon="6.39842">
        <ele>317</ele>
        <time>2024-01-12T13:17:00Z</time>
      </trkpt>
      <trkpt lat="43.52803" lon="6.39845">
        <ele>316</ele>
        <time>2024-01-12T13:17:03Z</time>
      </trkpt>
      <trkpt lat="43.52792" lon="6.39852">
        <ele>315</ele>
        <time>2024-01-12T13:17:12Z</time>
      </trkpt>
      <trkpt lat="43.52789" lon="6.39855">
        <ele>315</ele>
        <time>2024-01-12T13:17:16Z</time>
      </trkpt>
      <trkpt lat="43.52782" lon="6.39862">
        <ele>316</ele>
        <time>2024-01-12T13:17:25Z</time>
      </trkpt>
      <trkpt lat="43.52773" lon="6.39867">
        <ele>313</ele>
        <time>2024-01-12T13:17:38Z</time>
      </trkpt>
      <trkpt lat="43.52762" lon="6.39874">
        <ele>312</ele>
        <time>2024-01-12T13:17:51Z</time>
      </trkpt>
      <trkpt lat="43.52759" lon="6.39876">
        <ele>312</ele>
        <time>2024-01-12T13:17:56Z</time>
      </trkpt>
      <trkpt lat="43.52749" lon="6.39879">
        <ele>313</ele>
        <time>2024-01-12T13:18:25Z</time>
      </trkpt>
      <trkpt lat="43.52723" lon="6.39867">
        <ele>309</ele>
        <time>2024-01-12T13:18:54Z</time>
      </trkpt>
      <trkpt lat="43.5272" lon="6.39866">
        <ele>308</ele>
        <time>2024-01-12T13:18:58Z</time>
      </trkpt>
      <trkpt lat="43.52714" lon="6.39862">
        <ele>308</ele>
        <time>2024-01-12T13:19:05Z</time>
      </trkpt>
      <trkpt lat="43.52712" lon="6.39858">
        <ele>306</ele>
        <time>2024-01-12T13:19:08Z</time>
      </trkpt>
      <trkpt lat="43.52708" lon="6.39855">
        <ele>305</ele>
        <time>2024-01-12T13:19:12Z</time>
      </trkpt>
      <trkpt lat="43.52698" lon="6.39846">
        <ele>300</ele>
        <time>2024-01-12T13:19:27Z</time>
      </trkpt>
      <trkpt lat="43.52695" lon="6.39844">
        <ele>299</ele>
        <time>2024-01-12T13:19:31Z</time>
      </trkpt>
      <trkpt lat="43.52688" lon="6.3984">
        <ele>297</ele>
        <time>2024-01-12T13:19:39Z</time>
      </trkpt>
      <trkpt lat="43.52663" lon="6.39829">
        <ele>291</ele>
        <time>2024-01-12T13:20:05Z</time>
      </trkpt>
      <trkpt lat="43.52659" lon="6.39826">
        <ele>291</ele>
        <time>2024-01-12T13:20:08Z</time>
      </trkpt>
      <trkpt lat="43.52655" lon="6.39824">
        <ele>291</ele>
        <time>2024-01-12T13:20:12Z</time>
      </trkpt>
      <trkpt lat="43.52648" lon="6.39821">
        <ele>290</ele>
        <time>2024-01-12T13:20:19Z</time>
      </trkpt>
      <trkpt lat="43.52642" lon="6.39816">
        <ele>291</ele>
        <time>2024-01-12T13:20:25Z</time>
      </trkpt>
      <trkpt lat="43.52638" lon="6.39815">
        <ele>290</ele>
        <time>2024-01-12T13:20:28Z</time>
      </trkpt>
      <trkpt lat="43.52634" lon="6.39813">
        <ele>290</ele>
        <time>2024-01-12T13:20:32Z</time>
      </trkpt>
      <trkpt lat="43.52623" lon="6.39808">
        <ele>288</ele>
        <time>2024-01-12T13:20:45Z</time>
      </trkpt>
      <trkpt lat="43.5262" lon="6.39806">
        <ele>286</ele>
        <time>2024-01-12T13:20:50Z</time>
      </trkpt>
      <trkpt lat="43.52613" lon="6.39805">
        <ele>286</ele>
        <time>2024-01-12T13:20:57Z</time>
      </trkpt>
      <trkpt lat="43.5261" lon="6.39804">
        <ele>286</ele>
        <time>2024-01-12T13:21:00Z</time>
      </trkpt>
      <trkpt lat="43.52603" lon="6.39802">
        <ele>285</ele>
        <time>2024-01-12T13:21:08Z</time>
      </trkpt>
      <trkpt lat="43.52597" lon="6.39798">
        <ele>284</ele>
        <time>2024-01-12T13:21:16Z</time>
      </trkpt>
      <trkpt lat="43.52594" lon="6.39795">
        <ele>283</ele>
        <time>2024-01-12T13:21:19Z</time>
      </trkpt>
      <trkpt lat="43.5259" lon="6.39792">
        <ele>283</ele>
        <time>2024-01-12T13:21:24Z</time>
      </trkpt>
      <trkpt lat="43.52586" lon="6.39784">
        <ele>281</ele>
        <time>2024-01-12T13:21:30Z</time>
      </trkpt>
      <trkpt lat="43.52584" lon="6.39781">
        <ele>279</ele>
        <time>2024-01-12T13:21:33Z</time>
      </trkpt>
      <trkpt lat="43.52578" lon="6.39775">
        <ele>277</ele>
        <time>2024-01-12T13:21:40Z</time>
      </trkpt>
      <trkpt lat="43.52571" lon="6.39763">
        <ele>276</ele>
        <time>2024-01-12T13:21:52Z</time>
      </trkpt>
      <trkpt lat="43.52565" lon="6.39757">
        <ele>274</ele>
        <time>2024-01-12T13:21:59Z</time>
      </trkpt>
      <trkpt lat="43.52558" lon="6.39747">
        <ele>273</ele>
        <time>2024-01-12T13:22:10Z</time>
      </trkpt>
      <trkpt lat="43.52556" lon="6.39742">
        <ele>272</ele>
        <time>2024-01-12T13:22:14Z</time>
      </trkpt>
      <trkpt lat="43.52554" lon="6.39739">
        <ele>272</ele>
        <time>2024-01-12T13:22:17Z</time>
      </trkpt>
      <trkpt lat="43.52537" lon="6.39711">
        <ele>270</ele>
        <time>2024-01-12T13:22:48Z</time>
      </trkpt>
      <trkpt lat="43.52536" lon="6.39706">
        <ele>271</ele>
        <time>2024-01-12T13:22:55Z</time>
      </trkpt>
      <trkpt lat="43.52534" lon="6.39702">
        <ele>272</ele>
        <time>2024-01-12T13:22:59Z</time>
      </trkpt>
      <trkpt lat="43.52522" lon="6.39682">
        <ele>274</ele>
        <time>2024-01-12T13:23:21Z</time>
      </trkpt>
      <trkpt lat="43.52511" lon="6.39674">
        <ele>273</ele>
        <time>2024-01-12T13:23:36Z</time>
      </trkpt>
      <trkpt lat="43.525" lon="6.39672">
        <ele>271</ele>
        <time>2024-01-12T13:23:49Z</time>
      </trkpt>
      <trkpt lat="43.52497" lon="6.39671">
        <ele>270</ele>
        <time>2024-01-12T13:23:52Z</time>
      </trkpt>
      <trkpt lat="43.52495" lon="6.39668">
        <ele>269</ele>
        <time>2024-01-12T13:23:58Z</time>
      </trkpt>
      <trkpt lat="43.52486" lon="6.39664">
        <ele>267</ele>
        <time>2024-01-12T13:24:08Z</time>
      </trkpt>
      <trkpt lat="43.52483" lon="6.39665">
        <ele>265</ele>
        <time>2024-01-12T13:24:13Z</time>
      </trkpt>
      <trkpt lat="43.52472" lon="6.39662">
        <ele>261</ele>
        <time>2024-01-12T13:24:29Z</time>
      </trkpt>
      <trkpt lat="43.52464" lon="6.39662">
        <ele>258</ele>
        <time>2024-01-12T13:24:41Z</time>
      </trkpt>
      <trkpt lat="43.52461" lon="6.39662">
        <ele>257</ele>
        <time>2024-01-12T13:24:45Z</time>
      </trkpt>
      <trkpt lat="43.52457" lon="6.39661">
        <ele>257</ele>
        <time>2024-01-12T13:24:50Z</time>
      </trkpt>
      <trkpt lat="43.52443" lon="6.39654">
        <ele>255</ele>
        <time>2024-01-12T13:25:09Z</time>
      </trkpt>
      <trkpt lat="43.52439" lon="6.39653">
        <ele>255</ele>
        <time>2024-01-12T13:25:13Z</time>
      </trkpt>
      <trkpt lat="43.52435" lon="6.39649">
        <ele>253</ele>
        <time>2024-01-12T13:25:19Z</time>
      </trkpt>
      <trkpt lat="43.52432" lon="6.39647">
        <ele>253</ele>
        <time>2024-01-12T13:25:23Z</time>
      </trkpt>
      <trkpt lat="43.52428" lon="6.39645">
        <ele>252</ele>
        <time>2024-01-12T13:25:28Z</time>
      </trkpt>
      <trkpt lat="43.52423" lon="6.39642">
        <ele>251</ele>
        <time>2024-01-12T13:25:34Z</time>
      </trkpt>
      <trkpt lat="43.52419" lon="6.3964">
        <ele>250</ele>
        <time>2024-01-12T13:25:41Z</time>
      </trkpt>
      <trkpt lat="43.52414" lon="6.39635">
        <ele>250</ele>
        <time>2024-01-12T13:25:47Z</time>
      </trkpt>
      <trkpt lat="43.52407" lon="6.39635">
        <ele>250</ele>
        <time>2024-01-12T13:25:53Z</time>
      </trkpt>
      <trkpt lat="43.52402" lon="6.39634">
        <ele>251</ele>
        <time>2024-01-12T13:25:59Z</time>
      </trkpt>
      <trkpt lat="43.52396" lon="6.39634">
        <ele>249</ele>
        <time>2024-01-12T13:26:07Z</time>
      </trkpt>
      <trkpt lat="43.52391" lon="6.39634">
        <ele>248</ele>
        <time>2024-01-12T13:26:15Z</time>
      </trkpt>
      <trkpt lat="43.52384" lon="6.39634">
        <ele>246</ele>
        <time>2024-01-12T13:26:25Z</time>
      </trkpt>
      <trkpt lat="43.52379" lon="6.3963">
        <ele>245</ele>
        <time>2024-01-12T13:26:33Z</time>
      </trkpt>
      <trkpt lat="43.5236" lon="6.39627">
        <ele>243</ele>
        <time>2024-01-12T13:26:51Z</time>
      </trkpt>
      <trkpt lat="43.52355" lon="6.39623">
        <ele>243</ele>
        <time>2024-01-12T13:26:56Z</time>
      </trkpt>
      <trkpt lat="43.52318" lon="6.39618">
        <ele>243</ele>
        <time>2024-01-12T13:27:27Z</time>
      </trkpt>
      <trkpt lat="43.52308" lon="6.39617">
        <ele>243</ele>
        <time>2024-01-12T13:27:37Z</time>
      </trkpt>
      <trkpt lat="43.52304" lon="6.39618">
        <ele>244</ele>
        <time>2024-01-12T13:27:41Z</time>
      </trkpt>
      <trkpt lat="43.52295" lon="6.39617">
        <ele>246</ele>
        <time>2024-01-12T13:27:54Z</time>
      </trkpt>
      <trkpt lat="43.5229" lon="6.39617">
        <ele>245</ele>
        <time>2024-01-12T13:27:59Z</time>
      </trkpt>
      <trkpt lat="43.52286" lon="6.39616">
        <ele>245</ele>
        <time>2024-01-12T13:28:03Z</time>
      </trkpt>
      <trkpt lat="43.52273" lon="6.39609">
        <ele>243</ele>
        <time>2024-01-12T13:28:31Z</time>
      </trkpt>
      <trkpt lat="43.52268" lon="6.39604">
        <ele>243</ele>
        <time>2024-01-12T13:29:03Z</time>
      </trkpt>
      <trkpt lat="43.52262" lon="6.396">
        <ele>245</ele>
        <time>2024-01-12T13:29:43Z</time>
      </trkpt>
      <trkpt lat="43.52257" lon="6.396">
        <ele>245</ele>
        <time>2024-01-12T13:29:53Z</time>
      </trkpt>
      <trkpt lat="43.52237" lon="6.39602">
        <ele>244</ele>
        <time>2024-01-12T13:30:23Z</time>
      </trkpt>
      <trkpt lat="43.52232" lon="6.39602">
        <ele>244</ele>
        <time>2024-01-12T13:30:29Z</time>
      </trkpt>
      <trkpt lat="43.52227" lon="6.39605">
        <ele>244</ele>
        <time>2024-01-12T13:30:33Z</time>
      </trkpt>
      <trkpt lat="43.52221" lon="6.39607">
        <ele>245</ele>
        <time>2024-01-12T13:30:40Z</time>
      </trkpt>
      <trkpt lat="43.52216" lon="6.39607">
        <ele>247</ele>
        <time>2024-01-12T13:30:52Z</time>
      </trkpt>
      <trkpt lat="43.52211" lon="6.39609">
        <ele>248</ele>
        <time>2024-01-12T13:30:59Z</time>
      </trkpt>
      <trkpt lat="43.52192" lon="6.39614">
        <ele>250</ele>
        <time>2024-01-12T13:31:26Z</time>
      </trkpt>
      <trkpt lat="43.52185" lon="6.39615">
        <ele>249</ele>
        <time>2024-01-12T13:31:32Z</time>
      </trkpt>
      <trkpt lat="43.52181" lon="6.39617">
        <ele>249</ele>
        <time>2024-01-12T13:31:36Z</time>
      </trkpt>
      <trkpt lat="43.52177" lon="6.39619">
        <ele>248</ele>
        <time>2024-01-12T13:31:40Z</time>
      </trkpt>
      <trkpt lat="43.52161" lon="6.39619">
        <ele>247</ele>
        <time>2024-01-12T13:31:57Z</time>
      </trkpt>
      <trkpt lat="43.52157" lon="6.39621">
        <ele>246</ele>
        <time>2024-01-12T13:32:02Z</time>
      </trkpt>
      <trkpt lat="43.52153" lon="6.39623">
        <ele>245</ele>
        <time>2024-01-12T13:32:06Z</time>
      </trkpt>
      <trkpt lat="43.52148" lon="6.39624">
        <ele>246</ele>
        <time>2024-01-12T13:32:11Z</time>
      </trkpt>
      <trkpt lat="43.52144" lon="6.39624">
        <ele>246</ele>
        <time>2024-01-12T13:32:16Z</time>
      </trkpt>
      <trkpt lat="43.52139" lon="6.39623">
        <ele>244</ele>
        <time>2024-01-12T13:32:20Z</time>
      </trkpt>
      <trkpt lat="43.52136" lon="6.39623">
        <ele>243</ele>
        <time>2024-01-12T13:32:24Z</time>
      </trkpt>
      <trkpt lat="43.52128" lon="6.39624">
        <ele>243</ele>
        <time>2024-01-12T13:32:32Z</time>
      </trkpt>
      <trkpt lat="43.52123" lon="6.39624">
        <ele>243</ele>
        <time>2024-01-12T13:32:37Z</time>
      </trkpt>
      <trkpt lat="43.52096" lon="6.39637">
        <ele>243</ele>
        <time>2024-01-12T13:33:10Z</time>
      </trkpt>
      <trkpt lat="43.52093" lon="6.39639">
        <ele>244</ele>
        <time>2024-01-12T13:33:13Z</time>
      </trkpt>
      <trkpt lat="43.52086" lon="6.39643">
        <ele>244</ele>
        <time>2024-01-12T13:33:21Z</time>
      </trkpt>
      <trkpt lat="43.52073" lon="6.39645">
        <ele>244</ele>
        <time>2024-01-12T13:33:34Z</time>
      </trkpt>
      <trkpt lat="43.52059" lon="6.39638">
        <ele>243</ele>
        <time>2024-01-12T13:33:52Z</time>
      </trkpt>
      <trkpt lat="43.52053" lon="6.39635">
        <ele>251</ele>
        <time>2024-01-12T13:34:24Z</time>
      </trkpt>
      <trkpt lat="43.5205" lon="6.39637">
        <ele>251</ele>
        <time>2024-01-12T13:34:27Z</time>
      </trkpt>
      <trkpt lat="43.52047" lon="6.39639">
        <ele>251</ele>
        <time>2024-01-12T13:34:32Z</time>
      </trkpt>
      <trkpt lat="43.52045" lon="6.39642">
        <ele>251</ele>
        <time>2024-01-12T13:34:36Z</time>
      </trkpt>
      <trkpt lat="43.52041" lon="6.3964">
        <ele>252</ele>
        <time>2024-01-12T13:34:49Z</time>
      </trkpt>
      <trkpt lat="43.52038" lon="6.39643">
        <ele>253</ele>
        <time>2024-01-12T13:34:55Z</time>
      </trkpt>
      <trkpt lat="43.52035" lon="6.39649">
        <ele>251</ele>
        <time>2024-01-12T13:35:01Z</time>
      </trkpt>
      <trkpt lat="43.5203" lon="6.39652">
        <ele>250</ele>
        <time>2024-01-12T13:35:07Z</time>
      </trkpt>
      <trkpt lat="43.52025" lon="6.39655">
        <ele>248</ele>
        <time>2024-01-12T13:35:14Z</time>
      </trkpt>
      <trkpt lat="43.52022" lon="6.39655">
        <ele>248</ele>
        <time>2024-01-12T13:35:18Z</time>
      </trkpt>
      <trkpt lat="43.52023" lon="6.39657">
        <ele>249</ele>
        <time>2024-01-12T13:35:39Z</time>
      </trkpt>
      <trkpt lat="43.52025" lon="6.39654">
        <ele>249</ele>
        <time>2024-01-12T13:35:48Z</time>
      </trkpt>
      <trkpt lat="43.52028" lon="6.39651">
        <ele>249</ele>
        <time>2024-01-12T13:35:53Z</time>
      </trkpt>
      <trkpt lat="43.5203" lon="6.39647">
        <ele>252</ele>
        <time>2024-01-12T13:35:59Z</time>
      </trkpt>
      <trkpt lat="43.52033" lon="6.39644">
        <ele>253</ele>
        <time>2024-01-12T13:36:05Z</time>
      </trkpt>
      <trkpt lat="43.52036" lon="6.39641">
        <ele>253</ele>
        <time>2024-01-12T13:36:09Z</time>
      </trkpt>
      <trkpt lat="43.52039" lon="6.39636">
        <ele>252</ele>
        <time>2024-01-12T13:36:14Z</time>
      </trkpt>
      <trkpt lat="43.52039" lon="6.39631">
        <ele>252</ele>
        <time>2024-01-12T13:36:19Z</time>
      </trkpt>
      <trkpt lat="43.52032" lon="6.39618">
        <ele>252</ele>
        <time>2024-01-12T13:36:36Z</time>
      </trkpt>
      <trkpt lat="43.5203" lon="6.39615">
        <ele>252</ele>
        <time>2024-01-12T13:36:39Z</time>
      </trkpt>
      <trkpt lat="43.52027" lon="6.39614">
        <ele>251</ele>
        <time>2024-01-12T13:36:43Z</time>
      </trkpt>
      <trkpt lat="43.52025" lon="6.39611">
        <ele>252</ele>
        <time>2024-01-12T13:36:48Z</time>
      </trkpt>
      <trkpt lat="43.52017" lon="6.39606">
        <ele>251</ele>
        <time>2024-01-12T13:37:00Z</time>
      </trkpt>
      <trkpt lat="43.5201" lon="6.39602">
        <ele>251</ele>
        <time>2024-01-12T13:37:09Z</time>
      </trkpt>
      <trkpt lat="43.52" lon="6.39595">
        <ele>252</ele>
        <time>2024-01-12T13:37:18Z</time>
      </trkpt>
      <trkpt lat="43.51998" lon="6.39593">
        <ele>252</ele>
        <time>2024-01-12T13:37:21Z</time>
      </trkpt>
      <trkpt lat="43.51996" lon="6.3959">
        <ele>253</ele>
        <time>2024-01-12T13:37:25Z</time>
      </trkpt>
      <trkpt lat="43.51993" lon="6.39587">
        <ele>253</ele>
        <time>2024-01-12T13:37:30Z</time>
      </trkpt>
      <trkpt lat="43.51986" lon="6.39584">
        <ele>255</ele>
        <time>2024-01-12T13:37:36Z</time>
      </trkpt>
      <trkpt lat="43.51984" lon="6.39582">
        <ele>255</ele>
        <time>2024-01-12T13:37:39Z</time>
      </trkpt>
      <trkpt lat="43.51964" lon="6.39569">
        <ele>255</ele>
        <time>2024-01-12T13:37:59Z</time>
      </trkpt>
      <trkpt lat="43.51955" lon="6.39561">
        <ele>255</ele>
        <time>2024-01-12T13:38:08Z</time>
      </trkpt>
      <trkpt lat="43.51952" lon="6.3956">
        <ele>255</ele>
        <time>2024-01-12T13:38:11Z</time>
      </trkpt>
      <trkpt lat="43.51949" lon="6.39559">
        <ele>255</ele>
        <time>2024-01-12T13:38:14Z</time>
      </trkpt>
      <trkpt lat="43.51946" lon="6.3956">
        <ele>255</ele>
        <time>2024-01-12T13:38:19Z</time>
      </trkpt>
      <trkpt lat="43.51942" lon="6.39561">
        <ele>254</ele>
        <time>2024-01-12T13:38:23Z</time>
      </trkpt>
      <trkpt lat="43.51939" lon="6.39564">
        <ele>253</ele>
        <time>2024-01-12T13:38:27Z</time>
      </trkpt>
      <trkpt lat="43.51931" lon="6.39567">
        <ele>253</ele>
        <time>2024-01-12T13:38:35Z</time>
      </trkpt>
      <trkpt lat="43.51911" lon="6.39584">
        <ele>253</ele>
        <time>2024-01-12T13:38:56Z</time>
      </trkpt>
      <trkpt lat="43.51906" lon="6.3959">
        <ele>252</ele>
        <time>2024-01-12T13:39:02Z</time>
      </trkpt>
      <trkpt lat="43.51901" lon="6.39595">
        <ele>252</ele>
        <time>2024-01-12T13:39:08Z</time>
      </trkpt>
      <trkpt lat="43.51881" lon="6.3963">
        <ele>254</ele>
        <time>2024-01-12T13:39:38Z</time>
      </trkpt>
      <trkpt lat="43.51872" lon="6.39641">
        <ele>253</ele>
        <time>2024-01-12T13:39:50Z</time>
      </trkpt>
      <trkpt lat="43.51863" lon="6.39648">
        <ele>253</ele>
        <time>2024-01-12T13:39:59Z</time>
      </trkpt>
      <trkpt lat="43.51861" lon="6.39649">
        <ele>253</ele>
        <time>2024-01-12T13:40:01Z</time>
      </trkpt>
      <trkpt lat="43.51853" lon="6.39658">
        <ele>253</ele>
        <time>2024-01-12T13:40:10Z</time>
      </trkpt>
      <trkpt lat="43.51849" lon="6.39663">
        <ele>253</ele>
        <time>2024-01-12T13:40:15Z</time>
      </trkpt>
      <trkpt lat="43.51847" lon="6.39666">
        <ele>252</ele>
        <time>2024-01-12T13:40:19Z</time>
      </trkpt>
      <trkpt lat="43.51841" lon="6.39669">
        <ele>252</ele>
        <time>2024-01-12T13:40:25Z</time>
      </trkpt>
      <trkpt lat="43.51819" lon="6.39688">
        <ele>252</ele>
        <time>2024-01-12T13:40:46Z</time>
      </trkpt>
      <trkpt lat="43.51816" lon="6.39691">
        <ele>253</ele>
        <time>2024-01-12T13:40:50Z</time>
      </trkpt>
      <trkpt lat="43.51808" lon="6.39694">
        <ele>252</ele>
        <time>2024-01-12T13:41:00Z</time>
      </trkpt>
      <trkpt lat="43.51775" lon="6.397">
        <ele>248</ele>
        <time>2024-01-12T13:41:32Z</time>
      </trkpt>
      <trkpt lat="43.5177" lon="6.397">
        <ele>247</ele>
        <time>2024-01-12T13:41:35Z</time>
      </trkpt>
      <trkpt lat="43.5176" lon="6.39702">
        <ele>246</ele>
        <time>2024-01-12T13:41:45Z</time>
      </trkpt>
      <trkpt lat="43.51757" lon="6.39703">
        <ele>247</ele>
        <time>2024-01-12T13:41:48Z</time>
      </trkpt>
      <trkpt lat="43.5175" lon="6.39707">
        <ele>246</ele>
        <time>2024-01-12T13:41:54Z</time>
      </trkpt>
      <trkpt lat="43.5174" lon="6.3971">
        <ele>243</ele>
        <time>2024-01-12T13:42:08Z</time>
      </trkpt>
      <trkpt lat="43.51737" lon="6.39712">
        <ele>242</ele>
        <time>2024-01-12T13:42:11Z</time>
      </trkpt>
      <trkpt lat="43.51728" lon="6.39713">
        <ele>240</ele>
        <time>2024-01-12T13:42:21Z</time>
      </trkpt>
      <trkpt lat="43.51725" lon="6.39714">
        <ele>239</ele>
        <time>2024-01-12T13:42:24Z</time>
      </trkpt>
      <trkpt lat="43.51712" lon="6.39715">
        <ele>239</ele>
        <time>2024-01-12T13:42:36Z</time>
      </trkpt>
      <trkpt lat="43.51707" lon="6.39717">
        <ele>238</ele>
        <time>2024-01-12T13:42:43Z</time>
      </trkpt>
      <trkpt lat="43.51704" lon="6.39719">
        <ele>237</ele>
        <time>2024-01-12T13:42:47Z</time>
      </trkpt>
      <trkpt lat="43.51698" lon="6.3972">
        <ele>236</ele>
        <time>2024-01-12T13:42:52Z</time>
      </trkpt>
      <trkpt lat="43.51695" lon="6.39721">
        <ele>235</ele>
        <time>2024-01-12T13:42:55Z</time>
      </trkpt>
      <trkpt lat="43.51673" lon="6.3973">
        <ele>233</ele>
        <time>2024-01-12T13:43:25Z</time>
      </trkpt>
      <trkpt lat="43.51665" lon="6.39733">
        <ele>231</ele>
        <time>2024-01-12T13:43:36Z</time>
      </trkpt>
      <trkpt lat="43.51653" lon="6.39738">
        <ele>232</ele>
        <time>2024-01-12T13:43:55Z</time>
      </trkpt>
      <trkpt lat="43.5165" lon="6.39739">
        <ele>231</ele>
        <time>2024-01-12T13:43:58Z</time>
      </trkpt>
      <trkpt lat="43.51643" lon="6.3974">
        <ele>230</ele>
        <time>2024-01-12T13:44:07Z</time>
      </trkpt>
      <trkpt lat="43.5164" lon="6.39739">
        <ele>230</ele>
        <time>2024-01-12T13:44:10Z</time>
      </trkpt>
      <trkpt lat="43.51636" lon="6.39738">
        <ele>229</ele>
        <time>2024-01-12T13:44:14Z</time>
      </trkpt>
      <trkpt lat="43.51633" lon="6.39738">
        <ele>229</ele>
        <time>2024-01-12T13:44:17Z</time>
      </trkpt>
      <trkpt lat="43.51629" lon="6.39737">
        <ele>228</ele>
        <time>2024-01-12T13:44:21Z</time>
      </trkpt>
      <trkpt lat="43.51626" lon="6.39735">
        <ele>228</ele>
        <time>2024-01-12T13:44:26Z</time>
      </trkpt>
      <trkpt lat="43.51623" lon="6.39733">
        <ele>227</ele>
        <time>2024-01-12T13:44:31Z</time>
      </trkpt>
      <trkpt lat="43.5162" lon="6.3973">
        <ele>226</ele>
        <time>2024-01-12T13:44:37Z</time>
      </trkpt>
      <trkpt lat="43.51613" lon="6.39725">
        <ele>224</ele>
        <time>2024-01-12T13:44:48Z</time>
      </trkpt>
      <trkpt lat="43.5161" lon="6.39723">
        <ele>223</ele>
        <time>2024-01-12T13:44:51Z</time>
      </trkpt>
      <trkpt lat="43.51604" lon="6.3972">
        <ele>223</ele>
        <time>2024-01-12T13:45:00Z</time>
      </trkpt>
      <trkpt lat="43.51597" lon="6.39719">
        <ele>221</ele>
        <time>2024-01-12T13:45:08Z</time>
      </trkpt>
      <trkpt lat="43.51594" lon="6.39717">
        <ele>221</ele>
        <time>2024-01-12T13:45:12Z</time>
      </trkpt>
      <trkpt lat="43.51577" lon="6.39709">
        <ele>218</ele>
        <time>2024-01-12T13:45:35Z</time>
      </trkpt>
      <trkpt lat="43.51568" lon="6.39707">
        <ele>218</ele>
        <time>2024-01-12T13:45:46Z</time>
      </trkpt>
      <trkpt lat="43.51566" lon="6.39706">
        <ele>218</ele>
        <time>2024-01-12T13:45:48Z</time>
      </trkpt>
      <trkpt lat="43.5156" lon="6.39703">
        <ele>218</ele>
        <time>2024-01-12T13:45:55Z</time>
      </trkpt>
      <trkpt lat="43.51557" lon="6.39702">
        <ele>219</ele>
        <time>2024-01-12T13:45:58Z</time>
      </trkpt>
      <trkpt lat="43.51551" lon="6.39697">
        <ele>226</ele>
        <time>2024-01-12T13:47:37Z</time>
      </trkpt>
      <trkpt lat="43.5155" lon="6.397">
        <ele>229</ele>
        <time>2024-01-12T13:48:30Z</time>
      </trkpt>
      <trkpt lat="43.51548" lon="6.39702">
        <ele>230</ele>
        <time>2024-01-12T13:49:17Z</time>
      </trkpt>
      <trkpt lat="43.51546" lon="6.39705">
        <ele>230</ele>
        <time>2024-01-12T13:49:22Z</time>
      </trkpt>
      <trkpt lat="43.51544" lon="6.3971">
        <ele>229</ele>
        <time>2024-01-12T13:49:27Z</time>
      </trkpt>
      <trkpt lat="43.51541" lon="6.39712">
        <ele>228</ele>
        <time>2024-01-12T13:49:30Z</time>
      </trkpt>
      <trkpt lat="43.5154" lon="6.39717">
        <ele>227</ele>
        <time>2024-01-12T13:49:35Z</time>
      </trkpt>
      <trkpt lat="43.51539" lon="6.39723">
        <ele>227</ele>
        <time>2024-01-12T13:49:41Z</time>
      </trkpt>
      <trkpt lat="43.51539" lon="6.39726">
        <ele>227</ele>
        <time>2024-01-12T13:49:44Z</time>
      </trkpt>
      <trkpt lat="43.51538" lon="6.39736">
        <ele>226</ele>
        <time>2024-01-12T13:49:53Z</time>
      </trkpt>
      <trkpt lat="43.51535" lon="6.39746">
        <ele>224</ele>
        <time>2024-01-12T13:50:03Z</time>
      </trkpt>
      <trkpt lat="43.51534" lon="6.39751">
        <ele>224</ele>
        <time>2024-01-12T13:50:07Z</time>
      </trkpt>
      <trkpt lat="43.51533" lon="6.39755">
        <ele>224</ele>
        <time>2024-01-12T13:50:11Z</time>
      </trkpt>
      <trkpt lat="43.51528" lon="6.39766">
        <ele>221</ele>
        <time>2024-01-12T13:50:22Z</time>
      </trkpt>
      <trkpt lat="43.51525" lon="6.3977">
        <ele>221</ele>
        <time>2024-01-12T13:50:25Z</time>
      </trkpt>
      <trkpt lat="43.51525" lon="6.39775">
        <ele>220</ele>
        <time>2024-01-12T13:50:29Z</time>
      </trkpt>
      <trkpt lat="43.51525" lon="6.3978">
        <ele>220</ele>
        <time>2024-01-12T13:50:32Z</time>
      </trkpt>
      <trkpt lat="43.51526" lon="6.39785">
        <ele>220</ele>
        <time>2024-01-12T13:50:36Z</time>
      </trkpt>
      <trkpt lat="43.5153" lon="6.39796">
        <ele>221</ele>
        <time>2024-01-12T13:50:43Z</time>
      </trkpt>
      <trkpt lat="43.51534" lon="6.39803">
        <ele>220</ele>
        <time>2024-01-12T13:50:50Z</time>
      </trkpt>
      <trkpt lat="43.51537" lon="6.39809">
        <ele>220</ele>
        <time>2024-01-12T13:50:55Z</time>
      </trkpt>
      <trkpt lat="43.51539" lon="6.39813">
        <ele>219</ele>
        <time>2024-01-12T13:50:58Z</time>
      </trkpt>
      <trkpt lat="43.51541" lon="6.39818">
        <ele>219</ele>
        <time>2024-01-12T13:51:02Z</time>
      </trkpt>
      <trkpt lat="43.5155" lon="6.39829">
        <ele>221</ele>
        <time>2024-01-12T13:51:12Z</time>
      </trkpt>
      <trkpt lat="43.51554" lon="6.39837">
        <ele>221</ele>
        <time>2024-01-12T13:51:19Z</time>
      </trkpt>
      <trkpt lat="43.5156" lon="6.39846">
        <ele>220</ele>
        <time>2024-01-12T13:51:30Z</time>
      </trkpt>
      <trkpt lat="43.51568" lon="6.39851">
        <ele>221</ele>
        <time>2024-01-12T13:51:38Z</time>
      </trkpt>
      <trkpt lat="43.51581" lon="6.39853">
        <ele>223</ele>
        <time>2024-01-12T13:51:50Z</time>
      </trkpt>
      <trkpt lat="43.5159" lon="6.3986">
        <ele>225</ele>
        <time>2024-01-12T13:51:59Z</time>
      </trkpt>
      <trkpt lat="43.51594" lon="6.39863">
        <ele>225</ele>
        <time>2024-01-12T13:52:02Z</time>
      </trkpt>
      <trkpt lat="43.51596" lon="6.39866">
        <ele>225</ele>
        <time>2024-01-12T13:52:06Z</time>
      </trkpt>
      <trkpt lat="43.51601" lon="6.39874">
        <ele>223</ele>
        <time>2024-01-12T13:52:15Z</time>
      </trkpt>
      <trkpt lat="43.51603" lon="6.39879">
        <ele>223</ele>
        <time>2024-01-12T13:52:20Z</time>
      </trkpt>
      <trkpt lat="43.51604" lon="6.39882">
        <ele>222</ele>
        <time>2024-01-12T13:52:23Z</time>
      </trkpt>
      <trkpt lat="43.51608" lon="6.39891">
        <ele>220</ele>
        <time>2024-01-12T13:52:33Z</time>
      </trkpt>
      <trkpt lat="43.51611" lon="6.39896">
        <ele>220</ele>
        <time>2024-01-12T13:52:37Z</time>
      </trkpt>
      <trkpt lat="43.51612" lon="6.399">
        <ele>220</ele>
        <time>2024-01-12T13:52:40Z</time>
      </trkpt>
      <trkpt lat="43.51614" lon="6.39922">
        <ele>217</ele>
        <time>2024-01-12T13:52:56Z</time>
      </trkpt>
      <trkpt lat="43.51614" lon="6.39938">
        <ele>216</ele>
        <time>2024-01-12T13:53:07Z</time>
      </trkpt>
      <trkpt lat="43.51612" lon="6.39957">
        <ele>215</ele>
        <time>2024-01-12T13:53:21Z</time>
      </trkpt>
      <trkpt lat="43.51609" lon="6.39976">
        <ele>214</ele>
        <time>2024-01-12T13:53:34Z</time>
      </trkpt>
      <trkpt lat="43.51609" lon="6.39989">
        <ele>213</ele>
        <time>2024-01-12T13:53:43Z</time>
      </trkpt>
      <trkpt lat="43.51608" lon="6.39994">
        <ele>214</ele>
        <time>2024-01-12T13:53:47Z</time>
      </trkpt>
      <trkpt lat="43.51607" lon="6.39999">
        <ele>214</ele>
        <time>2024-01-12T13:53:50Z</time>
      </trkpt>
      <trkpt lat="43.51587" lon="6.4004">
        <ele>212</ele>
        <time>2024-01-12T13:54:24Z</time>
      </trkpt>
      <trkpt lat="43.51582" lon="6.40047">
        <ele>211</ele>
        <time>2024-01-12T13:54:31Z</time>
      </trkpt>
      <trkpt lat="43.5158" lon="6.40049">
        <ele>211</ele>
        <time>2024-01-12T13:54:34Z</time>
      </trkpt>
      <trkpt lat="43.51576" lon="6.40053">
        <ele>211</ele>
        <time>2024-01-12T13:54:38Z</time>
      </trkpt>
      <trkpt lat="43.51574" lon="6.40057">
        <ele>212</ele>
        <time>2024-01-12T13:54:42Z</time>
      </trkpt>
      <trkpt lat="43.51572" lon="6.40062">
        <ele>212</ele>
        <time>2024-01-12T13:54:47Z</time>
      </trkpt>
      <trkpt lat="43.51569" lon="6.40066">
        <ele>212</ele>
        <time>2024-01-12T13:54:52Z</time>
      </trkpt>
      <trkpt lat="43.51566" lon="6.4007">
        <ele>212</ele>
        <time>2024-01-12T13:54:58Z</time>
      </trkpt>
      <trkpt lat="43.51563" lon="6.40074">
        <ele>213</ele>
        <time>2024-01-12T13:55:03Z</time>
      </trkpt>
      <trkpt lat="43.5156" lon="6.40078">
        <ele>213</ele>
        <time>2024-01-12T13:55:11Z</time>
      </trkpt>
      <trkpt lat="43.51558" lon="6.40083">
        <ele>212</ele>
        <time>2024-01-12T13:55:16Z</time>
      </trkpt>
      <trkpt lat="43.51555" lon="6.40086">
        <ele>212</ele>
        <time>2024-01-12T13:55:21Z</time>
      </trkpt>
      <trkpt lat="43.51551" lon="6.40088">
        <ele>212</ele>
        <time>2024-01-12T13:55:25Z</time>
      </trkpt>
      <trkpt lat="43.51533" lon="6.40117">
        <ele>215</ele>
        <time>2024-01-12T13:55:56Z</time>
      </trkpt>
      <trkpt lat="43.51531" lon="6.40122">
        <ele>216</ele>
        <time>2024-01-12T13:56:00Z</time>
      </trkpt>
      <trkpt lat="43.5153" lon="6.40126">
        <ele>216</ele>
        <time>2024-01-12T13:56:07Z</time>
      </trkpt>
      <trkpt lat="43.51529" lon="6.40131">
        <ele>216</ele>
        <time>2024-01-12T13:56:11Z</time>
      </trkpt>
      <trkpt lat="43.51525" lon="6.40134">
        <ele>217</ele>
        <time>2024-01-12T13:56:17Z</time>
      </trkpt>
      <trkpt lat="43.51523" lon="6.40138">
        <ele>217</ele>
        <time>2024-01-12T13:56:21Z</time>
      </trkpt>
      <trkpt lat="43.51521" lon="6.40143">
        <ele>217</ele>
        <time>2024-01-12T13:56:27Z</time>
      </trkpt>
      <trkpt lat="43.5152" lon="6.40148">
        <ele>218</ele>
        <time>2024-01-12T13:56:34Z</time>
      </trkpt>
      <trkpt lat="43.51517" lon="6.40165">
        <ele>219</ele>
        <time>2024-01-12T13:56:49Z</time>
      </trkpt>
      <trkpt lat="43.51511" lon="6.40179">
        <ele>221</ele>
        <time>2024-01-12T13:57:05Z</time>
      </trkpt>
      <trkpt lat="43.51508" lon="6.4018">
        <ele>224</ele>
        <time>2024-01-12T13:57:42Z</time>
      </trkpt>
      <trkpt lat="43.51504" lon="6.40186">
        <ele>226</ele>
        <time>2024-01-12T13:57:56Z</time>
      </trkpt>
      <trkpt lat="43.51497" lon="6.40194">
        <ele>225</ele>
        <time>2024-01-12T13:58:04Z</time>
      </trkpt>
      <trkpt lat="43.51488" lon="6.40204">
        <ele>223</ele>
        <time>2024-01-12T13:58:16Z</time>
      </trkpt>
      <trkpt lat="43.51486" lon="6.40208">
        <ele>222</ele>
        <time>2024-01-12T13:58:20Z</time>
      </trkpt>
      <trkpt lat="43.51482" lon="6.40214">
        <ele>221</ele>
        <time>2024-01-12T13:58:25Z</time>
      </trkpt>
      <trkpt lat="43.5148" lon="6.40219">
        <ele>222</ele>
        <time>2024-01-12T13:58:29Z</time>
      </trkpt>
      <trkpt lat="43.51478" lon="6.40224">
        <ele>222</ele>
        <time>2024-01-12T13:58:33Z</time>
      </trkpt>
      <trkpt lat="43.51478" lon="6.40229">
        <ele>222</ele>
        <time>2024-01-12T13:58:38Z</time>
      </trkpt>
      <trkpt lat="43.51478" lon="6.40235">
        <ele>222</ele>
        <time>2024-01-12T13:58:44Z</time>
      </trkpt>
      <trkpt lat="43.51481" lon="6.40239">
        <ele>223</ele>
        <time>2024-01-12T13:58:49Z</time>
      </trkpt>
      <trkpt lat="43.51484" lon="6.40242">
        <ele>223</ele>
        <time>2024-01-12T13:58:54Z</time>
      </trkpt>
      <trkpt lat="43.5149" lon="6.40248">
        <ele>224</ele>
        <time>2024-01-12T13:59:02Z</time>
      </trkpt>
      <trkpt lat="43.51496" lon="6.40263">
        <ele>221</ele>
        <time>2024-01-12T13:59:15Z</time>
      </trkpt>
      <trkpt lat="43.51498" lon="6.40267">
        <ele>221</ele>
        <time>2024-01-12T13:59:18Z</time>
      </trkpt>
      <trkpt lat="43.51502" lon="6.40275">
        <ele>221</ele>
        <time>2024-01-12T13:59:25Z</time>
      </trkpt>
      <trkpt lat="43.51502" lon="6.4028">
        <ele>221</ele>
        <time>2024-01-12T13:59:29Z</time>
      </trkpt>
      <trkpt lat="43.51503" lon="6.40284">
        <ele>221</ele>
        <time>2024-01-12T13:59:33Z</time>
      </trkpt>
      <trkpt lat="43.51506" lon="6.40292">
        <ele>222</ele>
        <time>2024-01-12T13:59:38Z</time>
      </trkpt>
      <trkpt lat="43.51508" lon="6.40297">
        <ele>222</ele>
        <time>2024-01-12T13:59:43Z</time>
      </trkpt>
      <trkpt lat="43.5151" lon="6.40301">
        <ele>222</ele>
        <time>2024-01-12T13:59:46Z</time>
      </trkpt>
      <trkpt lat="43.51512" lon="6.40305">
        <ele>221</ele>
        <time>2024-01-12T13:59:50Z</time>
      </trkpt>
      <trkpt lat="43.51521" lon="6.40316">
        <ele>220</ele>
        <time>2024-01-12T14:00:01Z</time>
      </trkpt>
      <trkpt lat="43.51523" lon="6.4032">
        <ele>220</ele>
        <time>2024-01-12T14:00:05Z</time>
      </trkpt>
      <trkpt lat="43.51527" lon="6.40327">
        <ele>217</ele>
        <time>2024-01-12T14:00:28Z</time>
      </trkpt>
      <trkpt lat="43.51529" lon="6.40336">
        <ele>216</ele>
        <time>2024-01-12T14:00:34Z</time>
      </trkpt>
      <trkpt lat="43.51531" lon="6.4034">
        <ele>215</ele>
        <time>2024-01-12T14:00:37Z</time>
      </trkpt>
      <trkpt lat="43.51533" lon="6.40344">
        <ele>215</ele>
        <time>2024-01-12T14:00:41Z</time>
      </trkpt>
      <trkpt lat="43.51535" lon="6.40353">
        <ele>215</ele>
        <time>2024-01-12T14:00:47Z</time>
      </trkpt>
      <trkpt lat="43.51537" lon="6.40358">
        <ele>214</ele>
        <time>2024-01-12T14:00:51Z</time>
      </trkpt>
      <trkpt lat="43.51539" lon="6.40363">
        <ele>214</ele>
        <time>2024-01-12T14:00:55Z</time>
      </trkpt>
      <trkpt lat="43.51541" lon="6.40368">
        <ele>214</ele>
        <time>2024-01-12T14:00:58Z</time>
      </trkpt>
      <trkpt lat="43.51542" lon="6.40373">
        <ele>214</ele>
        <time>2024-01-12T14:01:01Z</time>
      </trkpt>
      <trkpt lat="43.51548" lon="6.4039">
        <ele>213</ele>
        <time>2024-01-12T14:01:13Z</time>
      </trkpt>
      <trkpt lat="43.51554" lon="6.40399">
        <ele>214</ele>
        <time>2024-01-12T14:01:21Z</time>
      </trkpt>
      <trkpt lat="43.51555" lon="6.40405">
        <ele>214</ele>
        <time>2024-01-12T14:01:25Z</time>
      </trkpt>
      <trkpt lat="43.51555" lon="6.40409">
        <ele>216</ele>
        <time>2024-01-12T14:01:28Z</time>
      </trkpt>
      <trkpt lat="43.51559" lon="6.40419">
        <ele>216</ele>
        <time>2024-01-12T14:01:35Z</time>
      </trkpt>
      <trkpt lat="43.51562" lon="6.40431">
        <ele>215</ele>
        <time>2024-01-12T14:01:43Z</time>
      </trkpt>
      <trkpt lat="43.51565" lon="6.40441">
        <ele>214</ele>
        <time>2024-01-12T14:01:50Z</time>
      </trkpt>
      <trkpt lat="43.51564" lon="6.40446">
        <ele>215</ele>
        <time>2024-01-12T14:01:53Z</time>
      </trkpt>
      <trkpt lat="43.51567" lon="6.40469">
        <ele>214</ele>
        <time>2024-01-12T14:02:07Z</time>
      </trkpt>
      <trkpt lat="43.51567" lon="6.40474">
        <ele>213</ele>
        <time>2024-01-12T14:02:11Z</time>
      </trkpt>
      <trkpt lat="43.5157" lon="6.40486">
        <ele>213</ele>
        <time>2024-01-12T14:02:20Z</time>
      </trkpt>
      <trkpt lat="43.51574" lon="6.40517">
        <ele>211</ele>
        <time>2024-01-12T14:02:38Z</time>
      </trkpt>
      <trkpt lat="43.51574" lon="6.40523">
        <ele>212</ele>
        <time>2024-01-12T14:02:42Z</time>
      </trkpt>
      <trkpt lat="43.51574" lon="6.40529">
        <ele>212</ele>
        <time>2024-01-12T14:02:48Z</time>
      </trkpt>
      <trkpt lat="43.51573" lon="6.40532">
        <ele>214</ele>
        <time>2024-01-12T14:03:15Z</time>
      </trkpt>
      <trkpt lat="43.51574" lon="6.40538">
        <ele>215</ele>
        <time>2024-01-12T14:05:44Z</time>
      </trkpt>
      <trkpt lat="43.51574" lon="6.40543">
        <ele>216</ele>
        <time>2024-01-12T14:05:48Z</time>
      </trkpt>
      <trkpt lat="43.51574" lon="6.40546">
        <ele>215</ele>
        <time>2024-01-12T14:05:55Z</time>
      </trkpt>
      <trkpt lat="43.51573" lon="6.40551">
        <ele>216</ele>
        <time>2024-01-12T14:06:11Z</time>
      </trkpt>
      <trkpt lat="43.51573" lon="6.40554">
        <ele>217</ele>
        <time>2024-01-12T14:06:16Z</time>
      </trkpt>
      <trkpt lat="43.51576" lon="6.40567">
        <ele>218</ele>
        <time>2024-01-12T14:06:30Z</time>
      </trkpt>
      <trkpt lat="43.51576" lon="6.40571">
        <ele>218</ele>
        <time>2024-01-12T14:06:35Z</time>
      </trkpt>
      <trkpt lat="43.51578" lon="6.40582">
        <ele>218</ele>
        <time>2024-01-12T14:06:46Z</time>
      </trkpt>
      <trkpt lat="43.5158" lon="6.40591">
        <ele>219</ele>
        <time>2024-01-12T14:06:55Z</time>
      </trkpt>
      <trkpt lat="43.51583" lon="6.40595">
        <ele>219</ele>
        <time>2024-01-12T14:07:00Z</time>
      </trkpt>
      <trkpt lat="43.51587" lon="6.40603">
        <ele>219</ele>
        <time>2024-01-12T14:07:11Z</time>
      </trkpt>
      <trkpt lat="43.51589" lon="6.40608">
        <ele>220</ele>
        <time>2024-01-12T14:07:17Z</time>
      </trkpt>
      <trkpt lat="43.51589" lon="6.40619">
        <ele>221</ele>
        <time>2024-01-12T14:07:27Z</time>
      </trkpt>
      <trkpt lat="43.5159" lon="6.40623">
        <ele>221</ele>
        <time>2024-01-12T14:07:30Z</time>
      </trkpt>
      <trkpt lat="43.51591" lon="6.40627">
        <ele>222</ele>
        <time>2024-01-12T14:07:34Z</time>
      </trkpt>
      <trkpt lat="43.51593" lon="6.40633">
        <ele>222</ele>
        <time>2024-01-12T14:07:39Z</time>
      </trkpt>
      <trkpt lat="43.51593" lon="6.40637">
        <ele>222</ele>
        <time>2024-01-12T14:07:42Z</time>
      </trkpt>
      <trkpt lat="43.51592" lon="6.40641">
        <ele>222</ele>
        <time>2024-01-12T14:07:46Z</time>
      </trkpt>
      <trkpt lat="43.51596" lon="6.40657">
        <ele>222</ele>
        <time>2024-01-12T14:08:03Z</time>
      </trkpt>
      <trkpt lat="43.516" lon="6.40669">
        <ele>220</ele>
        <time>2024-01-12T14:08:13Z</time>
      </trkpt>
      <trkpt lat="43.51603" lon="6.40672">
        <ele>220</ele>
        <time>2024-01-12T14:08:16Z</time>
      </trkpt>
      <trkpt lat="43.51606" lon="6.40675">
        <ele>221</ele>
        <time>2024-01-12T14:08:21Z</time>
      </trkpt>
      <trkpt lat="43.51613" lon="6.4068">
        <ele>222</ele>
        <time>2024-01-12T14:08:31Z</time>
      </trkpt>
      <trkpt lat="43.51621" lon="6.40682">
        <ele>223</ele>
        <time>2024-01-12T14:08:39Z</time>
      </trkpt>
      <trkpt lat="43.5163" lon="6.40682">
        <ele>224</ele>
        <time>2024-01-12T14:08:51Z</time>
      </trkpt>
      <trkpt lat="43.51639" lon="6.40682">
        <ele>223</ele>
        <time>2024-01-12T14:09:01Z</time>
      </trkpt>
      <trkpt lat="43.51642" lon="6.40684">
        <ele>223</ele>
        <time>2024-01-12T14:09:06Z</time>
      </trkpt>
      <trkpt lat="43.51655" lon="6.40683">
        <ele>222</ele>
        <time>2024-01-12T14:09:20Z</time>
      </trkpt>
      <trkpt lat="43.5168" lon="6.40682">
        <ele>223</ele>
        <time>2024-01-12T14:09:46Z</time>
      </trkpt>
      <trkpt lat="43.51684" lon="6.40681">
        <ele>223</ele>
        <time>2024-01-12T14:09:49Z</time>
      </trkpt>
      <trkpt lat="43.51696" lon="6.40681">
        <ele>224</ele>
        <time>2024-01-12T14:10:01Z</time>
      </trkpt>
      <trkpt lat="43.51701" lon="6.4068">
        <ele>224</ele>
        <time>2024-01-12T14:10:05Z</time>
      </trkpt>
      <trkpt lat="43.5171" lon="6.40681">
        <ele>223</ele>
        <time>2024-01-12T14:10:13Z</time>
      </trkpt>
      <trkpt lat="43.51732" lon="6.4068">
        <ele>224</ele>
        <time>2024-01-12T14:10:38Z</time>
      </trkpt>
      <trkpt lat="43.51736" lon="6.40681">
        <ele>224</ele>
        <time>2024-01-12T14:10:43Z</time>
      </trkpt>
      <trkpt lat="43.51744" lon="6.40683">
        <ele>222</ele>
        <time>2024-01-12T14:10:51Z</time>
      </trkpt>
      <trkpt lat="43.51774" lon="6.40687">
        <ele>222</ele>
        <time>2024-01-12T14:11:21Z</time>
      </trkpt>
      <trkpt lat="43.51783" lon="6.40687">
        <ele>223</ele>
        <time>2024-01-12T14:11:28Z</time>
      </trkpt>
      <trkpt lat="43.51799" lon="6.40686">
        <ele>223</ele>
        <time>2024-01-12T14:11:38Z</time>
      </trkpt>
      <trkpt lat="43.51803" lon="6.40685">
        <ele>222</ele>
        <time>2024-01-12T14:11:41Z</time>
      </trkpt>
      <trkpt lat="43.51818" lon="6.40686">
        <ele>223</ele>
        <time>2024-01-12T14:11:52Z</time>
      </trkpt>
      <trkpt lat="43.5185" lon="6.4069">
        <ele>225</ele>
        <time>2024-01-12T14:12:22Z</time>
      </trkpt>
      <trkpt lat="43.5188" lon="6.40691">
        <ele>225</ele>
        <time>2024-01-12T14:12:46Z</time>
      </trkpt>
      <trkpt lat="43.51886" lon="6.4069">
        <ele>223</ele>
        <time>2024-01-12T14:12:52Z</time>
      </trkpt>
      <trkpt lat="43.51891" lon="6.40692">
        <ele>223</ele>
        <time>2024-01-12T14:12:56Z</time>
      </trkpt>
      <trkpt lat="43.51921" lon="6.40696">
        <ele>223</ele>
        <time>2024-01-12T14:13:22Z</time>
      </trkpt>
      <trkpt lat="43.51953" lon="6.40708">
        <ele>224</ele>
        <time>2024-01-12T14:13:52Z</time>
      </trkpt>
      <trkpt lat="43.51956" lon="6.40708">
        <ele>224</ele>
        <time>2024-01-12T14:13:55Z</time>
      </trkpt>
      <trkpt lat="43.51985" lon="6.40729">
        <ele>225</ele>
        <time>2024-01-12T14:14:25Z</time>
      </trkpt>
      <trkpt lat="43.52011" lon="6.40749">
        <ele>223</ele>
        <time>2024-01-12T14:14:52Z</time>
      </trkpt>
      <trkpt lat="43.52016" lon="6.4075">
        <ele>224</ele>
        <time>2024-01-12T14:14:56Z</time>
      </trkpt>
      <trkpt lat="43.52021" lon="6.40756">
        <ele>224</ele>
        <time>2024-01-12T14:15:02Z</time>
      </trkpt>
      <trkpt lat="43.52024" lon="6.40759">
        <ele>224</ele>
        <time>2024-01-12T14:15:05Z</time>
      </trkpt>
      <trkpt lat="43.52031" lon="6.40763">
        <ele>224</ele>
        <time>2024-01-12T14:15:12Z</time>
      </trkpt>
      <trkpt lat="43.52043" lon="6.40771">
        <ele>223</ele>
        <time>2024-01-12T14:15:24Z</time>
      </trkpt>
      <trkpt lat="43.52046" lon="6.40773">
        <ele>223</ele>
        <time>2024-01-12T14:15:27Z</time>
      </trkpt>
      <trkpt lat="43.52062" lon="6.40788">
        <ele>224</ele>
        <time>2024-01-12T14:15:46Z</time>
      </trkpt>
      <trkpt lat="43.52066" lon="6.40792">
        <ele>223</ele>
        <time>2024-01-12T14:15:50Z</time>
      </trkpt>
      <trkpt lat="43.52071" lon="6.40797">
        <ele>223</ele>
        <time>2024-01-12T14:15:56Z</time>
      </trkpt>
      <trkpt lat="43.52081" lon="6.40804">
        <ele>222</ele>
        <time>2024-01-12T14:16:05Z</time>
      </trkpt>
      <trkpt lat="43.52087" lon="6.40807">
        <ele>222</ele>
        <time>2024-01-12T14:16:12Z</time>
      </trkpt>
      <trkpt lat="43.52093" lon="6.40811">
        <ele>220</ele>
        <time>2024-01-12T14:16:19Z</time>
      </trkpt>
      <trkpt lat="43.52096" lon="6.40814">
        <ele>220</ele>
        <time>2024-01-12T14:16:22Z</time>
      </trkpt>
      <trkpt lat="43.52098" lon="6.40818">
        <ele>219</ele>
        <time>2024-01-12T14:16:25Z</time>
      </trkpt>
      <trkpt lat="43.52109" lon="6.40825">
        <ele>218</ele>
        <time>2024-01-12T14:16:35Z</time>
      </trkpt>
      <trkpt lat="43.52117" lon="6.4083">
        <ele>218</ele>
        <time>2024-01-12T14:16:41Z</time>
      </trkpt>
      <trkpt lat="43.52138" lon="6.40841">
        <ele>221</ele>
        <time>2024-01-12T14:17:00Z</time>
      </trkpt>
      <trkpt lat="43.52147" lon="6.40843">
        <ele>222</ele>
        <time>2024-01-12T14:17:08Z</time>
      </trkpt>
      <trkpt lat="43.52151" lon="6.40844">
        <ele>223</ele>
        <time>2024-01-12T14:17:12Z</time>
      </trkpt>
      <trkpt lat="43.5216" lon="6.40846">
        <ele>224</ele>
        <time>2024-01-12T14:17:21Z</time>
      </trkpt>
      <trkpt lat="43.52174" lon="6.40846">
        <ele>226</ele>
        <time>2024-01-12T14:17:34Z</time>
      </trkpt>
      <trkpt lat="43.5218" lon="6.40845">
        <ele>226</ele>
        <time>2024-01-12T14:17:40Z</time>
      </trkpt>
      <trkpt lat="43.52184" lon="6.40845">
        <ele>226</ele>
        <time>2024-01-12T14:17:44Z</time>
      </trkpt>
      <trkpt lat="43.52187" lon="6.40845">
        <ele>227</ele>
        <time>2024-01-12T14:17:47Z</time>
      </trkpt>
      <trkpt lat="43.52191" lon="6.40843">
        <ele>227</ele>
        <time>2024-01-12T14:17:50Z</time>
      </trkpt>
      <trkpt lat="43.52207" lon="6.40835">
        <ele>225</ele>
        <time>2024-01-12T14:18:05Z</time>
      </trkpt>
      <trkpt lat="43.5221" lon="6.40835">
        <ele>224</ele>
        <time>2024-01-12T14:18:09Z</time>
      </trkpt>
      <trkpt lat="43.52238" lon="6.40817">
        <ele>218</ele>
        <time>2024-01-12T14:18:42Z</time>
      </trkpt>
      <trkpt lat="43.52268" lon="6.40803">
        <ele>217</ele>
        <time>2024-01-12T14:19:12Z</time>
      </trkpt>
      <trkpt lat="43.5228" lon="6.40799">
        <ele>217</ele>
        <time>2024-01-12T14:19:22Z</time>
      </trkpt>
      <trkpt lat="43.52284" lon="6.40796">
        <ele>218</ele>
        <time>2024-01-12T14:19:25Z</time>
      </trkpt>
      <trkpt lat="43.5229" lon="6.40795">
        <ele>219</ele>
        <time>2024-01-12T14:19:31Z</time>
      </trkpt>
      <trkpt lat="43.52294" lon="6.40796">
        <ele>220</ele>
        <time>2024-01-12T14:19:34Z</time>
      </trkpt>
      <trkpt lat="43.52306" lon="6.40791">
        <ele>222</ele>
        <time>2024-01-12T14:19:51Z</time>
      </trkpt>
      <trkpt lat="43.5231" lon="6.4079">
        <ele>223</ele>
        <time>2024-01-12T14:19:55Z</time>
      </trkpt>
      <trkpt lat="43.52313" lon="6.40789">
        <ele>224</ele>
        <time>2024-01-12T14:20:01Z</time>
      </trkpt>
      <trkpt lat="43.52315" lon="6.40787">
        <ele>224</ele>
        <time>2024-01-12T14:20:04Z</time>
      </trkpt>
      <trkpt lat="43.52327" lon="6.40778">
        <ele>222</ele>
        <time>2024-01-12T14:20:21Z</time>
      </trkpt>
      <trkpt lat="43.52338" lon="6.40773">
        <ele>220</ele>
        <time>2024-01-12T14:20:31Z</time>
      </trkpt>
      <trkpt lat="43.52341" lon="6.40771">
        <ele>220</ele>
        <time>2024-01-12T14:20:34Z</time>
      </trkpt>
      <trkpt lat="43.5235" lon="6.40765">
        <ele>220</ele>
        <time>2024-01-12T14:20:42Z</time>
      </trkpt>
      <trkpt lat="43.52361" lon="6.4076">
        <ele>221</ele>
        <time>2024-01-12T14:20:51Z</time>
      </trkpt>
      <trkpt lat="43.52386" lon="6.40746">
        <ele>221</ele>
        <time>2024-01-12T14:21:43Z</time>
      </trkpt>
      <trkpt lat="43.52388" lon="6.40743">
        <ele>221</ele>
        <time>2024-01-12T14:21:46Z</time>
      </trkpt>
      <trkpt lat="43.52391" lon="6.40741">
        <ele>221</ele>
        <time>2024-01-12T14:21:55Z</time>
      </trkpt>
      <trkpt lat="43.52398" lon="6.40739">
        <ele>222</ele>
        <time>2024-01-12T14:22:05Z</time>
      </trkpt>
      <trkpt lat="43.52401" lon="6.40737">
        <ele>222</ele>
        <time>2024-01-12T14:22:10Z</time>
      </trkpt>
      <trkpt lat="43.52402" lon="6.4074">
        <ele>220</ele>
        <time>2024-01-12T14:22:19Z</time>
      </trkpt>
      <trkpt lat="43.524" lon="6.4075">
        <ele>217</ele>
        <time>2024-01-12T14:22:31Z</time>
      </trkpt>
      <trkpt lat="43.5239" lon="6.40771">
        <ele>213</ele>
        <time>2024-01-12T14:22:57Z</time>
      </trkpt>
      <trkpt lat="43.52387" lon="6.40773">
        <ele>213</ele>
        <time>2024-01-12T14:23:01Z</time>
      </trkpt>
      <trkpt lat="43.52382" lon="6.40781">
        <ele>212</ele>
        <time>2024-01-12T14:23:14Z</time>
      </trkpt>
      <trkpt lat="43.52376" lon="6.40786">
        <ele>212</ele>
        <time>2024-01-12T14:23:22Z</time>
      </trkpt>
      <trkpt lat="43.5237" lon="6.40788">
        <ele>211</ele>
        <time>2024-01-12T14:23:30Z</time>
      </trkpt>
      <trkpt lat="43.52368" lon="6.40792">
        <ele>209</ele>
        <time>2024-01-12T14:23:36Z</time>
      </trkpt>
      <trkpt lat="43.52366" lon="6.40793">
        <ele>209</ele>
        <time>2024-01-12T14:23:46Z</time>
      </trkpt>
      <trkpt lat="43.52363" lon="6.40792">
        <ele>208</ele>
        <time>2024-01-12T14:23:48Z</time>
      </trkpt>
      <trkpt lat="43.5236" lon="6.40794">
        <ele>207</ele>
        <time>2024-01-12T14:23:52Z</time>
      </trkpt>
      <trkpt lat="43.52357" lon="6.40795">
        <ele>207</ele>
        <time>2024-01-12T14:23:56Z</time>
      </trkpt>
      <trkpt lat="43.52348" lon="6.40799">
        <ele>206</ele>
        <time>2024-01-12T14:24:07Z</time>
      </trkpt>
      <trkpt lat="43.52345" lon="6.40802">
        <ele>204</ele>
        <time>2024-01-12T14:24:13Z</time>
      </trkpt>
      <trkpt lat="43.52342" lon="6.40804">
        <ele>204</ele>
        <time>2024-01-12T14:24:17Z</time>
      </trkpt>
      <trkpt lat="43.52334" lon="6.40806">
        <ele>202</ele>
        <time>2024-01-12T14:24:27Z</time>
      </trkpt>
      <trkpt lat="43.52318" lon="6.40816">
        <ele>198</ele>
        <time>2024-01-12T14:24:48Z</time>
      </trkpt>
      <trkpt lat="43.52314" lon="6.40818">
        <ele>198</ele>
        <time>2024-01-12T14:24:52Z</time>
      </trkpt>
      <trkpt lat="43.5231" lon="6.40821">
        <ele>197</ele>
        <time>2024-01-12T14:24:56Z</time>
      </trkpt>
      <trkpt lat="43.52308" lon="6.40824">
        <ele>197</ele>
        <time>2024-01-12T14:25:01Z</time>
      </trkpt>
      <trkpt lat="43.52294" lon="6.40831">
        <ele>199</ele>
        <time>2024-01-12T14:25:31Z</time>
      </trkpt>
      <trkpt lat="43.52286" lon="6.40837">
        <ele>197</ele>
        <time>2024-01-12T14:25:40Z</time>
      </trkpt>
      <trkpt lat="43.52281" lon="6.40838">
        <ele>196</ele>
        <time>2024-01-12T14:25:45Z</time>
      </trkpt>
      <trkpt lat="43.52278" lon="6.4084">
        <ele>195</ele>
        <time>2024-01-12T14:25:49Z</time>
      </trkpt>
      <trkpt lat="43.52274" lon="6.40842">
        <ele>195</ele>
        <time>2024-01-12T14:25:53Z</time>
      </trkpt>
      <trkpt lat="43.5227" lon="6.40842">
        <ele>195</ele>
        <time>2024-01-12T14:25:56Z</time>
      </trkpt>
      <trkpt lat="43.52255" lon="6.40854">
        <ele>194</ele>
        <time>2024-01-12T14:26:12Z</time>
      </trkpt>
      <trkpt lat="43.52252" lon="6.40856">
        <ele>194</ele>
        <time>2024-01-12T14:26:17Z</time>
      </trkpt>
      <trkpt lat="43.52244" lon="6.40865">
        <ele>192</ele>
        <time>2024-01-12T14:26:31Z</time>
      </trkpt>
      <trkpt lat="43.52235" lon="6.4088">
        <ele>189</ele>
        <time>2024-01-12T14:26:46Z</time>
      </trkpt>
      <trkpt lat="43.52234" lon="6.40882">
        <ele>188</ele>
        <time>2024-01-12T14:26:49Z</time>
      </trkpt>
      <trkpt lat="43.52232" lon="6.40885">
        <ele>188</ele>
        <time>2024-01-12T14:26:52Z</time>
      </trkpt>
      <trkpt lat="43.5223" lon="6.40887">
        <ele>187</ele>
        <time>2024-01-12T14:26:56Z</time>
      </trkpt>
      <trkpt lat="43.52227" lon="6.40889">
        <ele>187</ele>
        <time>2024-01-12T14:26:59Z</time>
      </trkpt>
      <trkpt lat="43.52223" lon="6.40895">
        <ele>187</ele>
        <time>2024-01-12T14:27:07Z</time>
      </trkpt>
      <trkpt lat="43.52221" lon="6.40898">
        <ele>187</ele>
        <time>2024-01-12T14:27:12Z</time>
      </trkpt>
      <trkpt lat="43.52218" lon="6.409">
        <ele>188</ele>
        <time>2024-01-12T14:27:23Z</time>
      </trkpt>
      <trkpt lat="43.52217" lon="6.40903">
        <ele>189</ele>
        <time>2024-01-12T14:27:33Z</time>
      </trkpt>
      <trkpt lat="43.52214" lon="6.40906">
        <ele>193</ele>
        <time>2024-01-12T14:28:31Z</time>
      </trkpt>
      <trkpt lat="43.52213" lon="6.40912">
        <ele>193</ele>
        <time>2024-01-12T14:28:55Z</time>
      </trkpt>
      <trkpt lat="43.5221" lon="6.40912">
        <ele>196</ele>
        <time>2024-01-12T14:28:59Z</time>
      </trkpt>
      <trkpt lat="43.52204" lon="6.40913">
        <ele>195</ele>
        <time>2024-01-12T14:29:09Z</time>
      </trkpt>
      <trkpt lat="43.52201" lon="6.40913">
        <ele>193</ele>
        <time>2024-01-12T14:29:14Z</time>
      </trkpt>
      <trkpt lat="43.52198" lon="6.40914">
        <ele>192</ele>
        <time>2024-01-12T14:29:20Z</time>
      </trkpt>
      <trkpt lat="43.52197" lon="6.40919">
        <ele>191</ele>
        <time>2024-01-12T14:29:27Z</time>
      </trkpt>
      <trkpt lat="43.52194" lon="6.40927">
        <ele>189</ele>
        <time>2024-01-12T14:29:47Z</time>
      </trkpt>
      <trkpt lat="43.52189" lon="6.40931">
        <ele>192</ele>
        <time>2024-01-12T14:30:10Z</time>
      </trkpt>
      <trkpt lat="43.52191" lon="6.40931">
        <ele>192</ele>
        <time>2024-01-12T14:32:08Z</time>
      </trkpt>
      <trkpt lat="43.52191" lon="6.40929">
        <ele>192</ele>
        <time>2024-01-12T14:32:11Z</time>
      </trkpt>
      <trkpt lat="43.52192" lon="6.40925">
        <ele>192</ele>
        <time>2024-01-12T14:32:15Z</time>
      </trkpt>
      <trkpt lat="43.52193" lon="6.4092">
        <ele>193</ele>
        <time>2024-01-12T14:32:19Z</time>
      </trkpt>
      <trkpt lat="43.52195" lon="6.40918">
        <ele>192</ele>
        <time>2024-01-12T14:32:23Z</time>
      </trkpt>
      <trkpt lat="43.52198" lon="6.40918">
        <ele>192</ele>
        <time>2024-01-12T14:32:30Z</time>
      </trkpt>
      <trkpt lat="43.52206" lon="6.40912">
        <ele>194</ele>
        <time>2024-01-12T14:32:45Z</time>
      </trkpt>
      <trkpt lat="43.52211" lon="6.40908">
        <ele>193</ele>
        <time>2024-01-12T14:33:18Z</time>
      </trkpt>
      <trkpt lat="43.52217" lon="6.40903">
        <ele>193</ele>
        <time>2024-01-12T14:33:30Z</time>
      </trkpt>
      <trkpt lat="43.52221" lon="6.40898">
        <ele>195</ele>
        <time>2024-01-12T14:33:37Z</time>
      </trkpt>
      <trkpt lat="43.52224" lon="6.40897">
        <ele>197</ele>
        <time>2024-01-12T14:33:44Z</time>
      </trkpt>
      <trkpt lat="43.52226" lon="6.40895">
        <ele>200</ele>
        <time>2024-01-12T14:33:54Z</time>
      </trkpt>
      <trkpt lat="43.52228" lon="6.40892">
        <ele>201</ele>
        <time>2024-01-12T14:33:59Z</time>
      </trkpt>
      <trkpt lat="43.52231" lon="6.40889">
        <ele>201</ele>
        <time>2024-01-12T14:34:02Z</time>
      </trkpt>
      <trkpt lat="43.52241" lon="6.40876">
        <ele>201</ele>
        <time>2024-01-12T14:34:18Z</time>
      </trkpt>
      <trkpt lat="43.52244" lon="6.40872">
        <ele>202</ele>
        <time>2024-01-12T14:34:22Z</time>
      </trkpt>
      <trkpt lat="43.52245" lon="6.40867">
        <ele>202</ele>
        <time>2024-01-12T14:34:27Z</time>
      </trkpt>
      <trkpt lat="43.52248" lon="6.40863">
        <ele>202</ele>
        <time>2024-01-12T14:34:30Z</time>
      </trkpt>
      <trkpt lat="43.52251" lon="6.40859">
        <ele>202</ele>
        <time>2024-01-12T14:34:34Z</time>
      </trkpt>
      <trkpt lat="43.52253" lon="6.40856">
        <ele>202</ele>
        <time>2024-01-12T14:34:38Z</time>
      </trkpt>
      <trkpt lat="43.52256" lon="6.40854">
        <ele>203</ele>
        <time>2024-01-12T14:34:42Z</time>
      </trkpt>
      <trkpt lat="43.52272" lon="6.40844">
        <ele>204</ele>
        <time>2024-01-12T14:35:01Z</time>
      </trkpt>
      <trkpt lat="43.52275" lon="6.40841">
        <ele>206</ele>
        <time>2024-01-12T14:35:05Z</time>
      </trkpt>
      <trkpt lat="43.52281" lon="6.40836">
        <ele>205</ele>
        <time>2024-01-12T14:35:14Z</time>
      </trkpt>
      <trkpt lat="43.52295" lon="6.4083">
        <ele>204</ele>
        <time>2024-01-12T14:35:25Z</time>
      </trkpt>
      <trkpt lat="43.52304" lon="6.40826">
        <ele>206</ele>
        <time>2024-01-12T14:35:33Z</time>
      </trkpt>
      <trkpt lat="43.52308" lon="6.40824">
        <ele>206</ele>
        <time>2024-01-12T14:35:36Z</time>
      </trkpt>
      <trkpt lat="43.52317" lon="6.40816">
        <ele>208</ele>
        <time>2024-01-12T14:35:46Z</time>
      </trkpt>
      <trkpt lat="43.5232" lon="6.40815">
        <ele>208</ele>
        <time>2024-01-12T14:35:49Z</time>
      </trkpt>
      <trkpt lat="43.52324" lon="6.40813">
        <ele>210</ele>
        <time>2024-01-12T14:35:52Z</time>
      </trkpt>
      <trkpt lat="43.5233" lon="6.40809">
        <ele>211</ele>
        <time>2024-01-12T14:35:58Z</time>
      </trkpt>
      <trkpt lat="43.52333" lon="6.40806">
        <ele>210</ele>
        <time>2024-01-12T14:36:02Z</time>
      </trkpt>
      <trkpt lat="43.52349" lon="6.40799">
        <ele>211</ele>
        <time>2024-01-12T14:36:18Z</time>
      </trkpt>
      <trkpt lat="43.52353" lon="6.40798">
        <ele>212</ele>
        <time>2024-01-12T14:36:21Z</time>
      </trkpt>
      <trkpt lat="43.52365" lon="6.40794">
        <ele>212</ele>
        <time>2024-01-12T14:36:34Z</time>
      </trkpt>
      <trkpt lat="43.52368" lon="6.40793">
        <ele>212</ele>
        <time>2024-01-12T14:36:38Z</time>
      </trkpt>
      <trkpt lat="43.52371" lon="6.40792">
        <ele>213</ele>
        <time>2024-01-12T14:36:42Z</time>
      </trkpt>
      <trkpt lat="43.52373" lon="6.40789">
        <ele>213</ele>
        <time>2024-01-12T14:36:45Z</time>
      </trkpt>
      <trkpt lat="43.52376" lon="6.40787">
        <ele>213</ele>
        <time>2024-01-12T14:36:48Z</time>
      </trkpt>
      <trkpt lat="43.52378" lon="6.40785">
        <ele>213</ele>
        <time>2024-01-12T14:36:51Z</time>
      </trkpt>
      <trkpt lat="43.5238" lon="6.40783">
        <ele>214</ele>
        <time>2024-01-12T14:36:55Z</time>
      </trkpt>
      <trkpt lat="43.52382" lon="6.40782">
        <ele>214</ele>
        <time>2024-01-12T14:36:57Z</time>
      </trkpt>
      <trkpt lat="43.5239" lon="6.40773">
        <ele>214</ele>
        <time>2024-01-12T14:37:12Z</time>
      </trkpt>
      <trkpt lat="43.52395" lon="6.40763">
        <ele>215</ele>
        <time>2024-01-12T14:37:24Z</time>
      </trkpt>
      <trkpt lat="43.52397" lon="6.40754">
        <ele>216</ele>
        <time>2024-01-12T14:37:32Z</time>
      </trkpt>
      <trkpt lat="43.524" lon="6.4075">
        <ele>216</ele>
        <time>2024-01-12T14:37:38Z</time>
      </trkpt>
      <trkpt lat="43.524" lon="6.40747">
        <ele>216</ele>
        <time>2024-01-12T14:37:41Z</time>
      </trkpt>
      <trkpt lat="43.52399" lon="6.40743">
        <ele>217</ele>
        <time>2024-01-12T14:37:45Z</time>
      </trkpt>
      <trkpt lat="43.52401" lon="6.40734">
        <ele>218</ele>
        <time>2024-01-12T14:37:55Z</time>
      </trkpt>
      <trkpt lat="43.52404" lon="6.40735">
        <ele>218</ele>
        <time>2024-01-12T14:38:06Z</time>
      </trkpt>
      <trkpt lat="43.52404" lon="6.40732">
        <ele>219</ele>
        <time>2024-01-12T14:40:21Z</time>
      </trkpt>
      <trkpt lat="43.52406" lon="6.40729">
        <ele>219</ele>
        <time>2024-01-12T14:40:25Z</time>
      </trkpt>
      <trkpt lat="43.52407" lon="6.40725">
        <ele>219</ele>
        <time>2024-01-12T14:40:28Z</time>
      </trkpt>
      <trkpt lat="43.52409" lon="6.40722">
        <ele>220</ele>
        <time>2024-01-12T14:40:32Z</time>
      </trkpt>
      <trkpt lat="43.52417" lon="6.40713">
        <ele>221</ele>
        <time>2024-01-12T14:40:45Z</time>
      </trkpt>
      <trkpt lat="43.5242" lon="6.40712">
        <ele>221</ele>
        <time>2024-01-12T14:40:49Z</time>
      </trkpt>
      <trkpt lat="43.52423" lon="6.40709">
        <ele>221</ele>
        <time>2024-01-12T14:40:53Z</time>
      </trkpt>
      <trkpt lat="43.52425" lon="6.40707">
        <ele>222</ele>
        <time>2024-01-12T14:40:57Z</time>
      </trkpt>
      <trkpt lat="43.52431" lon="6.40704">
        <ele>222</ele>
        <time>2024-01-12T14:41:03Z</time>
      </trkpt>
      <trkpt lat="43.52445" lon="6.40694">
        <ele>223</ele>
        <time>2024-01-12T14:41:17Z</time>
      </trkpt>
      <trkpt lat="43.52464" lon="6.40684">
        <ele>223</ele>
        <time>2024-01-12T14:41:36Z</time>
      </trkpt>
      <trkpt lat="43.52477" lon="6.4068">
        <ele>224</ele>
        <time>2024-01-12T14:41:50Z</time>
      </trkpt>
      <trkpt lat="43.52488" lon="6.40676">
        <ele>225</ele>
        <time>2024-01-12T14:42:05Z</time>
      </trkpt>
      <trkpt lat="43.52496" lon="6.40677">
        <ele>227</ele>
        <time>2024-01-12T14:42:12Z</time>
      </trkpt>
      <trkpt lat="43.52503" lon="6.4068">
        <ele>228</ele>
        <time>2024-01-12T14:42:18Z</time>
      </trkpt>
      <trkpt lat="43.52506" lon="6.40677">
        <ele>228</ele>
        <time>2024-01-12T14:42:24Z</time>
      </trkpt>
      <trkpt lat="43.52514" lon="6.40679">
        <ele>227</ele>
        <time>2024-01-12T14:42:34Z</time>
      </trkpt>
      <trkpt lat="43.5254" lon="6.40681">
        <ele>223</ele>
        <time>2024-01-12T14:43:06Z</time>
      </trkpt>
      <trkpt lat="43.52553" lon="6.40683">
        <ele>224</ele>
        <time>2024-01-12T14:43:26Z</time>
      </trkpt>
      <trkpt lat="43.52562" lon="6.40682">
        <ele>223</ele>
        <time>2024-01-12T14:43:38Z</time>
      </trkpt>
      <trkpt lat="43.52566" lon="6.40684">
        <ele>222</ele>
        <time>2024-01-12T14:43:41Z</time>
      </trkpt>
      <trkpt lat="43.52588" lon="6.40686">
        <ele>222</ele>
        <time>2024-01-12T14:44:09Z</time>
      </trkpt>
      <trkpt lat="43.52601" lon="6.40693">
        <ele>224</ele>
        <time>2024-01-12T14:44:42Z</time>
      </trkpt>
      <trkpt lat="43.52604" lon="6.40693">
        <ele>227</ele>
        <time>2024-01-12T14:44:48Z</time>
      </trkpt>
      <trkpt lat="43.52608" lon="6.40691">
        <ele>227</ele>
        <time>2024-01-12T14:44:52Z</time>
      </trkpt>
      <trkpt lat="43.52617" lon="6.40691">
        <ele>227</ele>
        <time>2024-01-12T14:45:02Z</time>
      </trkpt>
      <trkpt lat="43.52621" lon="6.4069">
        <ele>226</ele>
        <time>2024-01-12T14:45:05Z</time>
      </trkpt>
      <trkpt lat="43.52634" lon="6.40692">
        <ele>225</ele>
        <time>2024-01-12T14:45:19Z</time>
      </trkpt>
      <trkpt lat="43.52644" lon="6.4069">
        <ele>224</ele>
        <time>2024-01-12T14:45:31Z</time>
      </trkpt>
      <trkpt lat="43.52647" lon="6.4069">
        <ele>224</ele>
        <time>2024-01-12T14:45:34Z</time>
      </trkpt>
      <trkpt lat="43.52654" lon="6.40687">
        <ele>223</ele>
        <time>2024-01-12T14:45:40Z</time>
      </trkpt>
      <trkpt lat="43.52662" lon="6.40685">
        <ele>221</ele>
        <time>2024-01-12T14:45:48Z</time>
      </trkpt>
      <trkpt lat="43.52668" lon="6.40682">
        <ele>222</ele>
        <time>2024-01-12T14:45:54Z</time>
      </trkpt>
      <trkpt lat="43.52691" lon="6.40673">
        <ele>218</ele>
        <time>2024-01-12T14:46:18Z</time>
      </trkpt>
      <trkpt lat="43.52714" lon="6.40669">
        <ele>216</ele>
        <time>2024-01-12T14:46:36Z</time>
      </trkpt>
      <trkpt lat="43.52722" lon="6.40666">
        <ele>216</ele>
        <time>2024-01-12T14:46:43Z</time>
      </trkpt>
      <trkpt lat="43.52726" lon="6.40664">
        <ele>217</ele>
        <time>2024-01-12T14:46:47Z</time>
      </trkpt>
      <trkpt lat="43.5273" lon="6.40664">
        <ele>217</ele>
        <time>2024-01-12T14:46:50Z</time>
      </trkpt>
      <trkpt lat="43.52733" lon="6.40662">
        <ele>217</ele>
        <time>2024-01-12T14:46:55Z</time>
      </trkpt>
      <trkpt lat="43.52738" lon="6.40662">
        <ele>217</ele>
        <time>2024-01-12T14:46:59Z</time>
      </trkpt>
      <trkpt lat="43.52742" lon="6.40661">
        <ele>217</ele>
        <time>2024-01-12T14:47:03Z</time>
      </trkpt>
      <trkpt lat="43.52764" lon="6.40661">
        <ele>219</ele>
        <time>2024-01-12T14:47:26Z</time>
      </trkpt>
      <trkpt lat="43.52773" lon="6.40663">
        <ele>219</ele>
        <time>2024-01-12T14:47:33Z</time>
      </trkpt>
      <trkpt lat="43.52777" lon="6.40665">
        <ele>219</ele>
        <time>2024-01-12T14:47:36Z</time>
      </trkpt>
      <trkpt lat="43.52781" lon="6.40667">
        <ele>219</ele>
        <time>2024-01-12T14:47:39Z</time>
      </trkpt>
      <trkpt lat="43.52787" lon="6.40667">
        <ele>220</ele>
        <time>2024-01-12T14:47:44Z</time>
      </trkpt>
      <trkpt lat="43.52808" lon="6.4067">
        <ele>221</ele>
        <time>2024-01-12T14:47:59Z</time>
      </trkpt>
      <trkpt lat="43.52825" lon="6.40671">
        <ele>222</ele>
        <time>2024-01-12T14:48:14Z</time>
      </trkpt>
      <trkpt lat="43.5283" lon="6.40672">
        <ele>222</ele>
        <time>2024-01-12T14:48:17Z</time>
      </trkpt>
      <trkpt lat="43.52849" lon="6.40673">
        <ele>220</ele>
        <time>2024-01-12T14:48:30Z</time>
      </trkpt>
      <trkpt lat="43.52857" lon="6.40673">
        <ele>217</ele>
        <time>2024-01-12T14:48:38Z</time>
      </trkpt>
      <trkpt lat="43.52872" lon="6.40668">
        <ele>213</ele>
        <time>2024-01-12T14:48:55Z</time>
      </trkpt>
      <trkpt lat="43.52877" lon="6.40667">
        <ele>211</ele>
        <time>2024-01-12T14:48:59Z</time>
      </trkpt>
      <trkpt lat="43.52897" lon="6.4066">
        <ele>209</ele>
        <time>2024-01-12T14:49:15Z</time>
      </trkpt>
      <trkpt lat="43.52901" lon="6.40659">
        <ele>209</ele>
        <time>2024-01-12T14:49:19Z</time>
      </trkpt>
      <trkpt lat="43.52906" lon="6.40658">
        <ele>210</ele>
        <time>2024-01-12T14:49:23Z</time>
      </trkpt>
      <trkpt lat="43.52911" lon="6.40655">
        <ele>209</ele>
        <time>2024-01-12T14:49:29Z</time>
      </trkpt>
      <trkpt lat="43.52929" lon="6.40648">
        <ele>207</ele>
        <time>2024-01-12T14:49:47Z</time>
      </trkpt>
      <trkpt lat="43.52939" lon="6.40643">
        <ele>206</ele>
        <time>2024-01-12T14:49:56Z</time>
      </trkpt>
      <trkpt lat="43.52959" lon="6.40641">
        <ele>207</ele>
        <time>2024-01-12T14:50:09Z</time>
      </trkpt>
      <trkpt lat="43.52963" lon="6.4064">
        <ele>207</ele>
        <time>2024-01-12T14:50:12Z</time>
      </trkpt>
      <trkpt lat="43.52981" lon="6.40636">
        <ele>208</ele>
        <time>2024-01-12T14:50:26Z</time>
      </trkpt>
      <trkpt lat="43.53011" lon="6.40629">
        <ele>210</ele>
        <time>2024-01-12T14:50:45Z</time>
      </trkpt>
      <trkpt lat="43.53029" lon="6.40619">
        <ele>212</ele>
        <time>2024-01-12T14:50:57Z</time>
      </trkpt>
      <trkpt lat="43.53061" lon="6.40594">
        <ele>222</ele>
        <time>2024-01-12T14:51:22Z</time>
      </trkpt>
      <trkpt lat="43.53081" lon="6.40582">
        <ele>225</ele>
        <time>2024-01-12T14:51:42Z</time>
      </trkpt>
      <trkpt lat="43.53089" lon="6.40576">
        <ele>227</ele>
        <time>2024-01-12T14:51:50Z</time>
      </trkpt>
      <trkpt lat="43.53091" lon="6.40574">
        <ele>227</ele>
        <time>2024-01-12T14:51:53Z</time>
      </trkpt>
      <trkpt lat="43.53095" lon="6.4057">
        <ele>227</ele>
        <time>2024-01-12T14:51:57Z</time>
      </trkpt>
      <trkpt lat="43.53115" lon="6.40551">
        <ele>228</ele>
        <time>2024-01-12T14:52:19Z</time>
      </trkpt>
      <trkpt lat="43.53124" lon="6.40545">
        <ele>230</ele>
        <time>2024-01-12T14:52:27Z</time>
      </trkpt>
      <trkpt lat="43.53127" lon="6.40542">
        <ele>231</ele>
        <time>2024-01-12T14:52:30Z</time>
      </trkpt>
      <trkpt lat="43.53148" lon="6.40523">
        <ele>233</ele>
        <time>2024-01-12T14:52:54Z</time>
      </trkpt>
      <trkpt lat="43.53157" lon="6.40509">
        <ele>235</ele>
        <time>2024-01-12T14:53:06Z</time>
      </trkpt>
      <trkpt lat="43.53159" lon="6.40501">
        <ele>235</ele>
        <time>2024-01-12T14:53:13Z</time>
      </trkpt>
      <trkpt lat="43.53162" lon="6.40492">
        <ele>234</ele>
        <time>2024-01-12T14:53:20Z</time>
      </trkpt>
      <trkpt lat="43.53168" lon="6.40481">
        <ele>234</ele>
        <time>2024-01-12T14:53:30Z</time>
      </trkpt>
      <trkpt lat="43.53169" lon="6.40476">
        <ele>234</ele>
        <time>2024-01-12T14:53:35Z</time>
      </trkpt>
      <trkpt lat="43.53171" lon="6.40471">
        <ele>234</ele>
        <time>2024-01-12T14:53:39Z</time>
      </trkpt>
      <trkpt lat="43.53174" lon="6.40466">
        <ele>234</ele>
        <time>2024-01-12T14:53:44Z</time>
      </trkpt>
      <trkpt lat="43.53177" lon="6.40464">
        <ele>235</ele>
        <time>2024-01-12T14:53:48Z</time>
      </trkpt>
      <trkpt lat="43.53184" lon="6.40459">
        <ele>236</ele>
        <time>2024-01-12T14:53:58Z</time>
      </trkpt>
      <trkpt lat="43.53196" lon="6.40453">
        <ele>238</ele>
        <time>2024-01-12T14:54:09Z</time>
      </trkpt>
      <trkpt lat="43.532" lon="6.40452">
        <ele>238</ele>
        <time>2024-01-12T14:54:16Z</time>
      </trkpt>
      <trkpt lat="43.53204" lon="6.4045">
        <ele>239</ele>
        <time>2024-01-12T14:54:19Z</time>
      </trkpt>
      <trkpt lat="43.53213" lon="6.40448">
        <ele>239</ele>
        <time>2024-01-12T14:54:25Z</time>
      </trkpt>
      <trkpt lat="43.53218" lon="6.40446">
        <ele>239</ele>
        <time>2024-01-12T14:54:28Z</time>
      </trkpt>
      <trkpt lat="43.53244" lon="6.40443">
        <ele>240</ele>
        <time>2024-01-12T14:54:52Z</time>
      </trkpt>
      <trkpt lat="43.53248" lon="6.40443">
        <ele>240</ele>
        <time>2024-01-12T14:54:55Z</time>
      </trkpt>
      <trkpt lat="43.53262" lon="6.40442">
        <ele>241</ele>
        <time>2024-01-12T14:55:06Z</time>
      </trkpt>
      <trkpt lat="43.53279" lon="6.40437">
        <ele>240</ele>
        <time>2024-01-12T14:55:21Z</time>
      </trkpt>
      <trkpt lat="43.5329" lon="6.40432">
        <ele>239</ele>
        <time>2024-01-12T14:55:32Z</time>
      </trkpt>
      <trkpt lat="43.53293" lon="6.40431">
        <ele>239</ele>
        <time>2024-01-12T14:55:36Z</time>
      </trkpt>
      <trkpt lat="43.53299" lon="6.40431">
        <ele>239</ele>
        <time>2024-01-12T14:56:03Z</time>
      </trkpt>
      <trkpt lat="43.53302" lon="6.40428">
        <ele>239</ele>
        <time>2024-01-12T14:56:45Z</time>
      </trkpt>
      <trkpt lat="43.53305" lon="6.40429">
        <ele>237</ele>
        <time>2024-01-12T14:57:46Z</time>
      </trkpt>
      <trkpt lat="43.53308" lon="6.40429">
        <ele>237</ele>
        <time>2024-01-12T14:57:54Z</time>
      </trkpt>
      <trkpt lat="43.53311" lon="6.40429">
        <ele>239</ele>
        <time>2024-01-12T14:57:58Z</time>
      </trkpt>
      <trkpt lat="43.53313" lon="6.40428">
        <ele>239</ele>
        <time>2024-01-12T14:58:01Z</time>
      </trkpt>
      <trkpt lat="43.53315" lon="6.40426">
        <ele>242</ele>
        <time>2024-01-12T14:58:36Z</time>
      </trkpt>
      <trkpt lat="43.53318" lon="6.40425">
        <ele>242</ele>
        <time>2024-01-12T14:58:56Z</time>
      </trkpt>
      <trkpt lat="43.5332" lon="6.40415">
        <ele>240</ele>
        <time>2024-01-12T14:59:04Z</time>
      </trkpt>
      <trkpt lat="43.53325" lon="6.4041">
        <ele>240</ele>
        <time>2024-01-12T14:59:10Z</time>
      </trkpt>
      <trkpt lat="43.53331" lon="6.40406">
        <ele>240</ele>
        <time>2024-01-12T14:59:18Z</time>
      </trkpt>
      <trkpt lat="43.53331" lon="6.40402">
        <ele>240</ele>
        <time>2024-01-12T14:59:22Z</time>
      </trkpt>
      <trkpt lat="43.53342" lon="6.40393">
        <ele>240</ele>
        <time>2024-01-12T14:59:36Z</time>
      </trkpt>
      <trkpt lat="43.53344" lon="6.40393">
        <ele>240</ele>
        <time>2024-01-12T14:59:38Z</time>
      </trkpt>
      <trkpt lat="43.53347" lon="6.40391">
        <ele>240</ele>
        <time>2024-01-12T14:59:42Z</time>
      </trkpt>
      <trkpt lat="43.5335" lon="6.40391">
        <ele>240</ele>
        <time>2024-01-12T14:59:47Z</time>
      </trkpt>
      <trkpt lat="43.53353" lon="6.40392">
        <ele>240</ele>
        <time>2024-01-12T14:59:51Z</time>
      </trkpt>
      <trkpt lat="43.53356" lon="6.40393">
        <ele>240</ele>
        <time>2024-01-12T14:59:54Z</time>
      </trkpt>
      <trkpt lat="43.5336" lon="6.40393">
        <ele>240</ele>
        <time>2024-01-12T14:59:57Z</time>
      </trkpt>
      <trkpt lat="43.5337" lon="6.40363">
        <ele>237</ele>
        <time>2024-01-12T15:00:27Z</time>
      </trkpt>
      <trkpt lat="43.53372" lon="6.40356">
        <ele>239</ele>
        <time>2024-01-12T15:00:33Z</time>
      </trkpt>
      <trkpt lat="43.53375" lon="6.40355">
        <ele>238</ele>
        <time>2024-01-12T15:00:39Z</time>
      </trkpt>
      <trkpt lat="43.53382" lon="6.40354">
        <ele>239</ele>
        <time>2024-01-12T15:00:46Z</time>
      </trkpt>
      <trkpt lat="43.53385" lon="6.40353">
        <ele>240</ele>
        <time>2024-01-12T15:00:50Z</time>
      </trkpt>
      <trkpt lat="43.53396" lon="6.40353">
        <ele>242</ele>
        <time>2024-01-12T15:01:02Z</time>
      </trkpt>
      <trkpt lat="43.53399" lon="6.40353">
        <ele>242</ele>
        <time>2024-01-12T15:01:04Z</time>
      </trkpt>
      <trkpt lat="43.53402" lon="6.40352">
        <ele>242</ele>
        <time>2024-01-12T15:01:07Z</time>
      </trkpt>
      <trkpt lat="43.53412" lon="6.40341">
        <ele>243</ele>
        <time>2024-01-12T15:01:18Z</time>
      </trkpt>
      <trkpt lat="43.53413" lon="6.40337">
        <ele>242</ele>
        <time>2024-01-12T15:01:21Z</time>
      </trkpt>
      <trkpt lat="43.53414" lon="6.40333">
        <ele>241</ele>
        <time>2024-01-12T15:01:24Z</time>
      </trkpt>
      <trkpt lat="43.53419" lon="6.40326">
        <ele>241</ele>
        <time>2024-01-12T15:01:30Z</time>
      </trkpt>
      <trkpt lat="43.53422" lon="6.40324">
        <ele>241</ele>
        <time>2024-01-12T15:01:33Z</time>
      </trkpt>
      <trkpt lat="43.53432" lon="6.40308">
        <ele>242</ele>
        <time>2024-01-12T15:01:49Z</time>
      </trkpt>
      <trkpt lat="43.53433" lon="6.40304">
        <ele>242</ele>
        <time>2024-01-12T15:01:53Z</time>
      </trkpt>
      <trkpt lat="43.53433" lon="6.403">
        <ele>241</ele>
        <time>2024-01-12T15:01:55Z</time>
      </trkpt>
      <trkpt lat="43.53433" lon="6.40296">
        <ele>241</ele>
        <time>2024-01-12T15:01:58Z</time>
      </trkpt>
      <trkpt lat="43.5343" lon="6.40293">
        <ele>240</ele>
        <time>2024-01-12T15:02:01Z</time>
      </trkpt>
      <trkpt lat="43.53428" lon="6.40289">
        <ele>240</ele>
        <time>2024-01-12T15:02:04Z</time>
      </trkpt>
      <trkpt lat="43.53417" lon="6.40282">
        <ele>240</ele>
        <time>2024-01-12T15:02:15Z</time>
      </trkpt>
      <trkpt lat="43.53412" lon="6.40276">
        <ele>240</ele>
        <time>2024-01-12T15:02:21Z</time>
      </trkpt>
      <trkpt lat="43.53407" lon="6.40272">
        <ele>241</ele>
        <time>2024-01-12T15:02:27Z</time>
      </trkpt>
      <trkpt lat="43.53404" lon="6.40269">
        <ele>241</ele>
        <time>2024-01-12T15:02:31Z</time>
      </trkpt>
      <trkpt lat="43.534" lon="6.40263">
        <ele>243</ele>
        <time>2024-01-12T15:02:37Z</time>
      </trkpt>
      <trkpt lat="43.53399" lon="6.40259">
        <ele>243</ele>
        <time>2024-01-12T15:02:41Z</time>
      </trkpt>
      <trkpt lat="43.53399" lon="6.40254">
        <ele>244</ele>
        <time>2024-01-12T15:02:44Z</time>
      </trkpt>
      <trkpt lat="43.534" lon="6.40251">
        <ele>245</ele>
        <time>2024-01-12T15:02:47Z</time>
      </trkpt>
      <trkpt lat="43.53404" lon="6.40241">
        <ele>246</ele>
        <time>2024-01-12T15:02:54Z</time>
      </trkpt>
      <trkpt lat="43.53408" lon="6.40236">
        <ele>248</ele>
        <time>2024-01-12T15:03:00Z</time>
      </trkpt>
      <trkpt lat="43.53411" lon="6.40236">
        <ele>247</ele>
        <time>2024-01-12T15:03:03Z</time>
      </trkpt>
      <trkpt lat="43.53418" lon="6.40236">
        <ele>248</ele>
        <time>2024-01-12T15:03:10Z</time>
      </trkpt>
      <trkpt lat="43.53427" lon="6.40241">
        <ele>252</ele>
        <time>2024-01-12T15:03:20Z</time>
      </trkpt>
      <trkpt lat="43.53433" lon="6.40242">
        <ele>253</ele>
        <time>2024-01-12T15:03:26Z</time>
      </trkpt>
      <trkpt lat="43.5345" lon="6.40234">
        <ele>254</ele>
        <time>2024-01-12T15:03:43Z</time>
      </trkpt>
      <trkpt lat="43.53453" lon="6.40232">
        <ele>254</ele>
        <time>2024-01-12T15:03:46Z</time>
      </trkpt>
      <trkpt lat="43.53455" lon="6.40228">
        <ele>254</ele>
        <time>2024-01-12T15:03:50Z</time>
      </trkpt>
      <trkpt lat="43.53453" lon="6.40221">
        <ele>253</ele>
        <time>2024-01-12T15:03:56Z</time>
      </trkpt>
      <trkpt lat="43.53452" lon="6.40212">
        <ele>253</ele>
        <time>2024-01-12T15:04:02Z</time>
      </trkpt>
      <trkpt lat="43.53453" lon="6.40208">
        <ele>252</ele>
        <time>2024-01-12T15:04:05Z</time>
      </trkpt>
      <trkpt lat="43.53468" lon="6.40198">
        <ele>253</ele>
        <time>2024-01-12T15:04:27Z</time>
      </trkpt>
      <trkpt lat="43.53471" lon="6.40196">
        <ele>254</ele>
        <time>2024-01-12T15:04:30Z</time>
      </trkpt>
      <trkpt lat="43.53472" lon="6.40193">
        <ele>254</ele>
        <time>2024-01-12T15:04:55Z</time>
      </trkpt>
      <trkpt lat="43.5347" lon="6.4019">
        <ele>254</ele>
        <time>2024-01-12T15:04:58Z</time>
      </trkpt>
      <trkpt lat="43.53466" lon="6.40183">
        <ele>254</ele>
        <time>2024-01-12T15:05:07Z</time>
      </trkpt>
      <trkpt lat="43.53464" lon="6.4018">
        <ele>253</ele>
        <time>2024-01-12T15:05:14Z</time>
      </trkpt>
      <trkpt lat="43.53465" lon="6.40177">
        <ele>254</ele>
        <time>2024-01-12T15:06:05Z</time>
      </trkpt>
      <trkpt lat="43.53464" lon="6.40173">
        <ele>254</ele>
        <time>2024-01-12T15:06:38Z</time>
      </trkpt>
      <trkpt lat="43.53462" lon="6.4017">
        <ele>254</ele>
        <time>2024-01-12T15:06:43Z</time>
      </trkpt>
      <trkpt lat="43.5346" lon="6.40163">
        <ele>255</ele>
        <time>2024-01-12T15:06:51Z</time>
      </trkpt>
      <trkpt lat="43.53459" lon="6.4016">
        <ele>255</ele>
        <time>2024-01-12T15:06:54Z</time>
      </trkpt>
      <trkpt lat="43.53457" lon="6.40152">
        <ele>256</ele>
        <time>2024-01-12T15:07:02Z</time>
      </trkpt>
      <trkpt lat="43.53455" lon="6.40149">
        <ele>256</ele>
        <time>2024-01-12T15:07:07Z</time>
      </trkpt>
      <trkpt lat="43.53454" lon="6.4014">
        <ele>256</ele>
        <time>2024-01-12T15:07:15Z</time>
      </trkpt>
      <trkpt lat="43.53456" lon="6.40137">
        <ele>256</ele>
        <time>2024-01-12T15:07:20Z</time>
      </trkpt>
      <trkpt lat="43.53465" lon="6.40131">
        <ele>258</ele>
        <time>2024-01-12T15:07:32Z</time>
      </trkpt>
      <trkpt lat="43.53467" lon="6.40128">
        <ele>259</ele>
        <time>2024-01-12T15:07:37Z</time>
      </trkpt>
      <trkpt lat="43.53478" lon="6.40118">
        <ele>257</ele>
        <time>2024-01-12T15:07:52Z</time>
      </trkpt>
      <trkpt lat="43.53481" lon="6.40114">
        <ele>258</ele>
        <time>2024-01-12T15:07:57Z</time>
      </trkpt>
      <trkpt lat="43.53482" lon="6.40108">
        <ele>258</ele>
        <time>2024-01-12T15:08:03Z</time>
      </trkpt>
      <trkpt lat="43.53489" lon="6.40101">
        <ele>258</ele>
        <time>2024-01-12T15:08:13Z</time>
      </trkpt>
      <trkpt lat="43.53496" lon="6.40095">
        <ele>257</ele>
        <time>2024-01-12T15:08:23Z</time>
      </trkpt>
      <trkpt lat="43.53507" lon="6.40084">
        <ele>256</ele>
        <time>2024-01-12T15:08:42Z</time>
      </trkpt>
      <trkpt lat="43.5351" lon="6.40082">
        <ele>257</ele>
        <time>2024-01-12T15:08:46Z</time>
      </trkpt>
      <trkpt lat="43.53518" lon="6.40078">
        <ele>258</ele>
        <time>2024-01-12T15:08:54Z</time>
      </trkpt>
      <trkpt lat="43.53528" lon="6.40071">
        <ele>257</ele>
        <time>2024-01-12T15:09:05Z</time>
      </trkpt>
      <trkpt lat="43.53534" lon="6.40057">
        <ele>257</ele>
        <time>2024-01-12T15:09:19Z</time>
      </trkpt>
      <trkpt lat="43.53538" lon="6.40053">
        <ele>258</ele>
        <time>2024-01-12T15:09:23Z</time>
      </trkpt>
      <trkpt lat="43.53545" lon="6.40046">
        <ele>258</ele>
        <time>2024-01-12T15:09:35Z</time>
      </trkpt>
      <trkpt lat="43.53549" lon="6.40042">
        <ele>258</ele>
        <time>2024-01-12T15:09:44Z</time>
      </trkpt>
      <trkpt lat="43.53548" lon="6.40037">
        <ele>258</ele>
        <time>2024-01-12T15:09:53Z</time>
      </trkpt>
      <trkpt lat="43.53539" lon="6.40036">
        <ele>260</ele>
        <time>2024-01-12T15:10:11Z</time>
      </trkpt>
      <trkpt lat="43.53534" lon="6.40036">
        <ele>260</ele>
        <time>2024-01-12T15:10:18Z</time>
      </trkpt>
      <trkpt lat="43.5353" lon="6.4004">
        <ele>262</ele>
        <time>2024-01-12T15:10:28Z</time>
      </trkpt>
      <trkpt lat="43.53527" lon="6.40043">
        <ele>262</ele>
        <time>2024-01-12T15:10:33Z</time>
      </trkpt>
      <trkpt lat="43.53523" lon="6.40044">
        <ele>262</ele>
        <time>2024-01-12T15:10:38Z</time>
      </trkpt>
      <trkpt lat="43.53519" lon="6.40046">
        <ele>263</ele>
        <time>2024-01-12T15:10:43Z</time>
      </trkpt>
      <trkpt lat="43.53511" lon="6.40045">
        <ele>264</ele>
        <time>2024-01-12T15:10:55Z</time>
      </trkpt>
      <trkpt lat="43.53507" lon="6.40044">
        <ele>264</ele>
        <time>2024-01-12T15:10:59Z</time>
      </trkpt>
      <trkpt lat="43.53492" lon="6.40048">
        <ele>264</ele>
        <time>2024-01-12T15:11:18Z</time>
      </trkpt>
      <trkpt lat="43.53488" lon="6.40048">
        <ele>265</ele>
        <time>2024-01-12T15:11:22Z</time>
      </trkpt>
      <trkpt lat="43.53485" lon="6.40051">
        <ele>266</ele>
        <time>2024-01-12T15:11:28Z</time>
      </trkpt>
      <trkpt lat="43.53481" lon="6.40054">
        <ele>267</ele>
        <time>2024-01-12T15:11:32Z</time>
      </trkpt>
      <trkpt lat="43.53478" lon="6.40054">
        <ele>268</ele>
        <time>2024-01-12T15:11:35Z</time>
      </trkpt>
      <trkpt lat="43.53475" lon="6.40053">
        <ele>267</ele>
        <time>2024-01-12T15:11:38Z</time>
      </trkpt>
      <trkpt lat="43.53467" lon="6.40051">
        <ele>269</ele>
        <time>2024-01-12T15:11:44Z</time>
      </trkpt>
      <trkpt lat="43.53464" lon="6.4005">
        <ele>269</ele>
        <time>2024-01-12T15:11:46Z</time>
      </trkpt>
      <trkpt lat="43.5345" lon="6.40051">
        <ele>272</ele>
        <time>2024-01-12T15:12:07Z</time>
      </trkpt>
      <trkpt lat="43.53447" lon="6.40051">
        <ele>271</ele>
        <time>2024-01-12T15:12:11Z</time>
      </trkpt>
      <trkpt lat="43.53444" lon="6.4005">
        <ele>271</ele>
        <time>2024-01-12T15:12:15Z</time>
      </trkpt>
      <trkpt lat="43.53443" lon="6.40046">
        <ele>272</ele>
        <time>2024-01-12T15:12:19Z</time>
      </trkpt>
      <trkpt lat="43.53442" lon="6.40042">
        <ele>273</ele>
        <time>2024-01-12T15:12:24Z</time>
      </trkpt>
      <trkpt lat="43.53441" lon="6.40038">
        <ele>275</ele>
        <time>2024-01-12T15:12:30Z</time>
      </trkpt>
      <trkpt lat="43.5344" lon="6.40025">
        <ele>277</ele>
        <time>2024-01-12T15:12:43Z</time>
      </trkpt>
      <trkpt lat="43.53438" lon="6.40021">
        <ele>276</ele>
        <time>2024-01-12T15:12:48Z</time>
      </trkpt>
      <trkpt lat="43.53434" lon="6.3999">
        <ele>279</ele>
        <time>2024-01-12T15:13:22Z</time>
      </trkpt>
      <trkpt lat="43.53431" lon="6.3998">
        <ele>280</ele>
        <time>2024-01-12T15:13:35Z</time>
      </trkpt>
      <trkpt lat="43.53425" lon="6.39973">
        <ele>282</ele>
        <time>2024-01-12T15:13:44Z</time>
      </trkpt>
      <trkpt lat="43.53423" lon="6.39971">
        <ele>283</ele>
        <time>2024-01-12T15:13:47Z</time>
      </trkpt>
      <trkpt lat="43.53421" lon="6.39968">
        <ele>283</ele>
        <time>2024-01-12T15:13:51Z</time>
      </trkpt>
      <trkpt lat="43.53419" lon="6.39965">
        <ele>283</ele>
        <time>2024-01-12T15:13:55Z</time>
      </trkpt>
      <trkpt lat="43.5342" lon="6.39961">
        <ele>284</ele>
        <time>2024-01-12T15:14:03Z</time>
      </trkpt>
      <trkpt lat="43.53422" lon="6.39959">
        <ele>284</ele>
        <time>2024-01-12T15:14:08Z</time>
      </trkpt>
      <trkpt lat="43.53426" lon="6.39957">
        <ele>286</ele>
        <time>2024-01-12T15:14:50Z</time>
      </trkpt>
      <trkpt lat="43.53428" lon="6.39955">
        <ele>287</ele>
        <time>2024-01-12T15:14:53Z</time>
      </trkpt>
      <trkpt lat="43.53429" lon="6.39955">
        <ele>287</ele>
        <time>2024-01-12T15:14:55Z</time>
      </trkpt>
      <trkpt lat="43.53434" lon="6.39953">
        <ele>286</ele>
        <time>2024-01-12T15:15:06Z</time>
      </trkpt>
    </trkseg>
  </trk>
</gpx>